<?xml version="1.0" encoding="UTF-8" standalone="no" ?>
<gpx xmlns="http://www.topografix.com/GPX/1/1" xmlns:xsi="http://www.w3.org/2001/XMLSchema-instance" xsi:schemaLocation="http://www.topografix.com/GPX/1/1 http://www.topografix.com/GPX/1/1/gpx.xsd" version="1.1" creator="VisuGPX - https://www.visugpx.com">
  <metadata>
    <name>Randonnée du 02-07-2017  - Odars 9.7Km</name>
    <desc><![CDATA[Randonnée du 02-07-2017  - Boucle Odars (31);Fourquevaux;Odars]]></desc>
  </metadata>
  <trk>
    <name><![CDATA[Rando Odars 02Jul17]]></name>
    <desc><![CDATA[2 juil. 2017  9:37 am]]></desc>
    <trkseg>
      <trkpt lat="43.52414" lon="1.58978">
        <ele>235.651</ele>
        <time>2017-07-02T07:37:15.000Z</time>
      </trkpt>
      <trkpt lat="43.52413" lon="1.58977">
        <ele>235.756</ele>
        <time>2017-07-02T07:37:17.000Z</time>
      </trkpt>
      <trkpt lat="43.52413" lon="1.58977">
        <ele>235.804</ele>
        <time>2017-07-02T07:37:20.000Z</time>
      </trkpt>
      <trkpt lat="43.52413" lon="1.58977">
        <ele>235.804</ele>
        <time>2017-07-02T07:37:20.000Z</time>
      </trkpt>
      <trkpt lat="43.52422" lon="1.58981">
        <ele>235.577</ele>
        <time>2017-07-02T07:37:34.582Z</time>
      </trkpt>
      <trkpt lat="43.5243" lon="1.58988">
        <ele>235.394</ele>
        <time>2017-07-02T07:37:43.123Z</time>
      </trkpt>
      <trkpt lat="43.52439" lon="1.58996">
        <ele>234.921</ele>
        <time>2017-07-02T07:37:52.600Z</time>
      </trkpt>
      <trkpt lat="43.52441" lon="1.59008">
        <ele>234.17</ele>
        <time>2017-07-02T07:38:01.279Z</time>
      </trkpt>
      <trkpt lat="43.52437" lon="1.5902">
        <ele>233.343</ele>
        <time>2017-07-02T07:38:10.139Z</time>
      </trkpt>
      <trkpt lat="43.52432" lon="1.59031">
        <ele>232.548</ele>
        <time>2017-07-02T07:38:19.034Z</time>
      </trkpt>
      <trkpt lat="43.52428" lon="1.59043">
        <ele>231.809</ele>
        <time>2017-07-02T07:38:27.884Z</time>
      </trkpt>
      <trkpt lat="43.52424" lon="1.59054">
        <ele>231.129</ele>
        <time>2017-07-02T07:38:36.400Z</time>
      </trkpt>
      <trkpt lat="43.52419" lon="1.59065">
        <ele>230.455</ele>
        <time>2017-07-02T07:38:45.210Z</time>
      </trkpt>
      <trkpt lat="43.52411" lon="1.59075">
        <ele>229.686</ele>
        <time>2017-07-02T07:38:54.501Z</time>
      </trkpt>
      <trkpt lat="43.5241" lon="1.59088">
        <ele>228.737</ele>
        <time>2017-07-02T07:39:03.170Z</time>
      </trkpt>
      <trkpt lat="43.52401" lon="1.59096">
        <ele>227.639</ele>
        <time>2017-07-02T07:39:12.044Z</time>
      </trkpt>
      <trkpt lat="43.52395" lon="1.59106">
        <ele>226.571</ele>
        <time>2017-07-02T07:39:20.907Z</time>
      </trkpt>
      <trkpt lat="43.52387" lon="1.59114">
        <ele>225.721</ele>
        <time>2017-07-02T07:39:29.928Z</time>
      </trkpt>
      <trkpt lat="43.52381" lon="1.59125">
        <ele>225.093</ele>
        <time>2017-07-02T07:39:38.688Z</time>
      </trkpt>
      <trkpt lat="43.52379" lon="1.59137">
        <ele>224.572</ele>
        <time>2017-07-02T07:39:46.894Z</time>
      </trkpt>
      <trkpt lat="43.52371" lon="1.59146">
        <ele>224.089</ele>
        <time>2017-07-02T07:39:56.002Z</time>
      </trkpt>
      <trkpt lat="43.52362" lon="1.59151">
        <ele>223.691</ele>
        <time>2017-07-02T07:40:04.719Z</time>
      </trkpt>
      <trkpt lat="43.52354" lon="1.59156">
        <ele>223.471</ele>
        <time>2017-07-02T07:40:12.817Z</time>
      </trkpt>
      <trkpt lat="43.52345" lon="1.59159">
        <ele>223.411</ele>
        <time>2017-07-02T07:40:20.826Z</time>
      </trkpt>
      <trkpt lat="43.52336" lon="1.59164">
        <ele>223.412</ele>
        <time>2017-07-02T07:40:29.501Z</time>
      </trkpt>
      <trkpt lat="43.52327" lon="1.59169">
        <ele>223.457</ele>
        <time>2017-07-02T07:40:37.865Z</time>
      </trkpt>
      <trkpt lat="43.52318" lon="1.59171">
        <ele>223.57</ele>
        <time>2017-07-02T07:40:45.954Z</time>
      </trkpt>
      <trkpt lat="43.52309" lon="1.59171">
        <ele>223.706</ele>
        <time>2017-07-02T07:40:54.736Z</time>
      </trkpt>
      <trkpt lat="43.523" lon="1.59179">
        <ele>223.826</ele>
        <time>2017-07-02T07:41:04.132Z</time>
      </trkpt>
      <trkpt lat="43.52291" lon="1.59183">
        <ele>223.975</ele>
        <time>2017-07-02T07:41:12.727Z</time>
      </trkpt>
      <trkpt lat="43.52281" lon="1.59186">
        <ele>224.191</ele>
        <time>2017-07-02T07:41:21.419Z</time>
      </trkpt>
      <trkpt lat="43.52272" lon="1.5919">
        <ele>224.452</ele>
        <time>2017-07-02T07:41:29.980Z</time>
      </trkpt>
      <trkpt lat="43.52262" lon="1.59193">
        <ele>224.698</ele>
        <time>2017-07-02T07:41:38.171Z</time>
      </trkpt>
      <trkpt lat="43.52253" lon="1.59197">
        <ele>224.917</ele>
        <time>2017-07-02T07:41:46.440Z</time>
      </trkpt>
      <trkpt lat="43.52244" lon="1.59202">
        <ele>225.132</ele>
        <time>2017-07-02T07:41:54.999Z</time>
      </trkpt>
      <trkpt lat="43.52244" lon="1.59202">
        <ele>225.304</ele>
        <time>2017-07-02T07:42:02.999Z</time>
      </trkpt>
      <trkpt lat="43.52244" lon="1.59202">
        <ele>225.304</ele>
        <time>2017-07-02T07:42:02.999Z</time>
      </trkpt>
      <trkpt lat="43.52225" lon="1.59209">
        <ele>225.237</ele>
        <time>2017-07-02T07:42:30.308Z</time>
      </trkpt>
      <trkpt lat="43.52216" lon="1.59212">
        <ele>225.226</ele>
        <time>2017-07-02T07:42:38.674Z</time>
      </trkpt>
      <trkpt lat="43.52207" lon="1.59217">
        <ele>225.472</ele>
        <time>2017-07-02T07:42:47.307Z</time>
      </trkpt>
      <trkpt lat="43.52199" lon="1.59222">
        <ele>225.762</ele>
        <time>2017-07-02T07:42:55.847Z</time>
      </trkpt>
      <trkpt lat="43.52191" lon="1.59228">
        <ele>225.874</ele>
        <time>2017-07-02T07:43:04.003Z</time>
      </trkpt>
      <trkpt lat="43.52184" lon="1.59237">
        <ele>225.896</ele>
        <time>2017-07-02T07:43:12.667Z</time>
      </trkpt>
      <trkpt lat="43.52176" lon="1.59246">
        <ele>225.954</ele>
        <time>2017-07-02T07:43:21.448Z</time>
      </trkpt>
      <trkpt lat="43.52169" lon="1.59256">
        <ele>226.025</ele>
        <time>2017-07-02T07:43:29.797Z</time>
      </trkpt>
      <trkpt lat="43.52163" lon="1.59265">
        <ele>226.049</ele>
        <time>2017-07-02T07:43:37.305Z</time>
      </trkpt>
      <trkpt lat="43.52156" lon="1.59277">
        <ele>225.997</ele>
        <time>2017-07-02T07:43:45.837Z</time>
      </trkpt>
      <trkpt lat="43.5215" lon="1.59286">
        <ele>225.813</ele>
        <time>2017-07-02T07:43:53.447Z</time>
      </trkpt>
      <trkpt lat="43.52144" lon="1.59297">
        <ele>225.4</ele>
        <time>2017-07-02T07:44:01.322Z</time>
      </trkpt>
      <trkpt lat="43.5214" lon="1.59309">
        <ele>224.821</ele>
        <time>2017-07-02T07:44:08.667Z</time>
      </trkpt>
      <trkpt lat="43.52135" lon="1.5932">
        <ele>224.271</ele>
        <time>2017-07-02T07:44:15.961Z</time>
      </trkpt>
      <trkpt lat="43.5213" lon="1.59331">
        <ele>223.851</ele>
        <time>2017-07-02T07:44:22.948Z</time>
      </trkpt>
      <trkpt lat="43.52125" lon="1.59342">
        <ele>223.494</ele>
        <time>2017-07-02T07:44:30.070Z</time>
      </trkpt>
      <trkpt lat="43.52118" lon="1.59352">
        <ele>223.097</ele>
        <time>2017-07-02T07:44:38.311Z</time>
      </trkpt>
      <trkpt lat="43.52113" lon="1.59363">
        <ele>222.627</ele>
        <time>2017-07-02T07:44:45.502Z</time>
      </trkpt>
      <trkpt lat="43.52109" lon="1.59375">
        <ele>222.148</ele>
        <time>2017-07-02T07:44:52.775Z</time>
      </trkpt>
      <trkpt lat="43.52102" lon="1.59385">
        <ele>221.737</ele>
        <time>2017-07-02T07:45:00.426Z</time>
      </trkpt>
      <trkpt lat="43.52094" lon="1.59391">
        <ele>221.48</ele>
        <time>2017-07-02T07:45:07.721Z</time>
      </trkpt>
      <trkpt lat="43.52085" lon="1.59395">
        <ele>221.436</ele>
        <time>2017-07-02T07:45:15.347Z</time>
      </trkpt>
      <trkpt lat="43.52076" lon="1.59393">
        <ele>221.674</ele>
        <time>2017-07-02T07:45:22.965Z</time>
      </trkpt>
      <trkpt lat="43.52067" lon="1.5939">
        <ele>222.172</ele>
        <time>2017-07-02T07:45:30.162Z</time>
      </trkpt>
      <trkpt lat="43.52058" lon="1.59391">
        <ele>222.715</ele>
        <time>2017-07-02T07:45:37.024Z</time>
      </trkpt>
      <trkpt lat="43.52048" lon="1.59394">
        <ele>223.211</ele>
        <time>2017-07-02T07:45:44.753Z</time>
      </trkpt>
      <trkpt lat="43.5204" lon="1.59399">
        <ele>223.788</ele>
        <time>2017-07-02T07:45:52.403Z</time>
      </trkpt>
      <trkpt lat="43.52031" lon="1.59404">
        <ele>224.439</ele>
        <time>2017-07-02T07:46:00.328Z</time>
      </trkpt>
      <trkpt lat="43.52023" lon="1.59411">
        <ele>224.992</ele>
        <time>2017-07-02T07:46:08.316Z</time>
      </trkpt>
      <trkpt lat="43.52015" lon="1.5942">
        <ele>225.371</ele>
        <time>2017-07-02T07:46:16.570Z</time>
      </trkpt>
      <trkpt lat="43.52005" lon="1.59425">
        <ele>225.681</ele>
        <time>2017-07-02T07:46:24.853Z</time>
      </trkpt>
      <trkpt lat="43.51998" lon="1.59433">
        <ele>226.051</ele>
        <time>2017-07-02T07:46:32.715Z</time>
      </trkpt>
      <trkpt lat="43.51991" lon="1.59441">
        <ele>226.446</ele>
        <time>2017-07-02T07:46:40.684Z</time>
      </trkpt>
      <trkpt lat="43.51982" lon="1.59447">
        <ele>226.804</ele>
        <time>2017-07-02T07:46:49.351Z</time>
      </trkpt>
      <trkpt lat="43.51974" lon="1.59456">
        <ele>227.132</ele>
        <time>2017-07-02T07:46:57.748Z</time>
      </trkpt>
      <trkpt lat="43.51966" lon="1.59462">
        <ele>227.439</ele>
        <time>2017-07-02T07:47:05.413Z</time>
      </trkpt>
      <trkpt lat="43.51955" lon="1.59465">
        <ele>227.724</ele>
        <time>2017-07-02T07:47:13.484Z</time>
      </trkpt>
      <trkpt lat="43.51946" lon="1.59467">
        <ele>227.947</ele>
        <time>2017-07-02T07:47:20.750Z</time>
      </trkpt>
      <trkpt lat="43.51937" lon="1.59471">
        <ele>228.057</ele>
        <time>2017-07-02T07:47:27.736Z</time>
      </trkpt>
      <trkpt lat="43.51928" lon="1.59476">
        <ele>228.072</ele>
        <time>2017-07-02T07:47:35.016Z</time>
      </trkpt>
      <trkpt lat="43.51919" lon="1.59479">
        <ele>228.037</ele>
        <time>2017-07-02T07:47:42.235Z</time>
      </trkpt>
      <trkpt lat="43.51909" lon="1.5948">
        <ele>227.983</ele>
        <time>2017-07-02T07:47:49.863Z</time>
      </trkpt>
      <trkpt lat="43.51901" lon="1.59488">
        <ele>227.852</ele>
        <time>2017-07-02T07:47:57.385Z</time>
      </trkpt>
      <trkpt lat="43.51897" lon="1.595">
        <ele>227.506</ele>
        <time>2017-07-02T07:48:04.765Z</time>
      </trkpt>
      <trkpt lat="43.51892" lon="1.59512">
        <ele>226.968</ele>
        <time>2017-07-02T07:48:13.142Z</time>
      </trkpt>
      <trkpt lat="43.51887" lon="1.59524">
        <ele>226.479</ele>
        <time>2017-07-02T07:48:21.624Z</time>
      </trkpt>
      <trkpt lat="43.51883" lon="1.59537">
        <ele>226.246</ele>
        <time>2017-07-02T07:48:29.813Z</time>
      </trkpt>
      <trkpt lat="43.51881" lon="1.5955">
        <ele>226.327</ele>
        <time>2017-07-02T07:48:37.496Z</time>
      </trkpt>
      <trkpt lat="43.51875" lon="1.5956">
        <ele>226.638</ele>
        <time>2017-07-02T07:48:44.714Z</time>
      </trkpt>
      <trkpt lat="43.5187" lon="1.59571">
        <ele>226.984</ele>
        <time>2017-07-02T07:48:52.058Z</time>
      </trkpt>
      <trkpt lat="43.51865" lon="1.59584">
        <ele>227.185</ele>
        <time>2017-07-02T07:48:59.944Z</time>
      </trkpt>
      <trkpt lat="43.51859" lon="1.59594">
        <ele>227.195</ele>
        <time>2017-07-02T07:49:07.526Z</time>
      </trkpt>
      <trkpt lat="43.51854" lon="1.59605">
        <ele>227.085</ele>
        <time>2017-07-02T07:49:15.157Z</time>
      </trkpt>
      <trkpt lat="43.51849" lon="1.59616">
        <ele>226.961</ele>
        <time>2017-07-02T07:49:22.846Z</time>
      </trkpt>
      <trkpt lat="43.51844" lon="1.59628">
        <ele>226.894</ele>
        <time>2017-07-02T07:49:30.420Z</time>
      </trkpt>
      <trkpt lat="43.5184" lon="1.5964">
        <ele>226.88</ele>
        <time>2017-07-02T07:49:37.955Z</time>
      </trkpt>
      <trkpt lat="43.51834" lon="1.5965">
        <ele>226.89</ele>
        <time>2017-07-02T07:49:44.983Z</time>
      </trkpt>
      <trkpt lat="43.51829" lon="1.59661">
        <ele>226.916</ele>
        <time>2017-07-02T07:49:52.621Z</time>
      </trkpt>
      <trkpt lat="43.51822" lon="1.59671">
        <ele>227.003</ele>
        <time>2017-07-02T07:50:00.192Z</time>
      </trkpt>
      <trkpt lat="43.51819" lon="1.59683">
        <ele>227.18</ele>
        <time>2017-07-02T07:50:08.101Z</time>
      </trkpt>
      <trkpt lat="43.51815" lon="1.59695">
        <ele>227.426</ele>
        <time>2017-07-02T07:50:16.184Z</time>
      </trkpt>
      <trkpt lat="43.51811" lon="1.59707">
        <ele>227.726</ele>
        <time>2017-07-02T07:50:24.091Z</time>
      </trkpt>
      <trkpt lat="43.51808" lon="1.59721">
        <ele>228.035</ele>
        <time>2017-07-02T07:50:32.405Z</time>
      </trkpt>
      <trkpt lat="43.51804" lon="1.59733">
        <ele>228.242</ele>
        <time>2017-07-02T07:50:40.109Z</time>
      </trkpt>
      <trkpt lat="43.51799" lon="1.59743">
        <ele>228.31</ele>
        <time>2017-07-02T07:50:47.261Z</time>
      </trkpt>
      <trkpt lat="43.51792" lon="1.59753">
        <ele>228.297</ele>
        <time>2017-07-02T07:50:54.811Z</time>
      </trkpt>
      <trkpt lat="43.51788" lon="1.59764">
        <ele>228.286</ele>
        <time>2017-07-02T07:51:01.935Z</time>
      </trkpt>
      <trkpt lat="43.51783" lon="1.59775">
        <ele>228.322</ele>
        <time>2017-07-02T07:51:09.860Z</time>
      </trkpt>
      <trkpt lat="43.51779" lon="1.59788">
        <ele>228.375</ele>
        <time>2017-07-02T07:51:17.560Z</time>
      </trkpt>
      <trkpt lat="43.51776" lon="1.598">
        <ele>228.364</ele>
        <time>2017-07-02T07:51:25.070Z</time>
      </trkpt>
      <trkpt lat="43.5177" lon="1.59811">
        <ele>228.263</ele>
        <time>2017-07-02T07:51:32.872Z</time>
      </trkpt>
      <trkpt lat="43.51763" lon="1.59822">
        <ele>228.148</ele>
        <time>2017-07-02T07:51:41.076Z</time>
      </trkpt>
      <trkpt lat="43.51759" lon="1.59834">
        <ele>228.077</ele>
        <time>2017-07-02T07:51:48.943Z</time>
      </trkpt>
      <trkpt lat="43.51754" lon="1.59846">
        <ele>228.006</ele>
        <time>2017-07-02T07:51:56.626Z</time>
      </trkpt>
      <trkpt lat="43.51749" lon="1.59857">
        <ele>227.903</ele>
        <time>2017-07-02T07:52:04.104Z</time>
      </trkpt>
      <trkpt lat="43.51744" lon="1.59868">
        <ele>227.77</ele>
        <time>2017-07-02T07:52:11.468Z</time>
      </trkpt>
      <trkpt lat="43.5174" lon="1.5988">
        <ele>227.628</ele>
        <time>2017-07-02T07:52:18.948Z</time>
      </trkpt>
      <trkpt lat="43.51736" lon="1.59892">
        <ele>227.529</ele>
        <time>2017-07-02T07:52:26.322Z</time>
      </trkpt>
      <trkpt lat="43.5173" lon="1.59902">
        <ele>227.502</ele>
        <time>2017-07-02T07:52:34.146Z</time>
      </trkpt>
      <trkpt lat="43.51723" lon="1.59914">
        <ele>227.513</ele>
        <time>2017-07-02T07:52:42.588Z</time>
      </trkpt>
      <trkpt lat="43.51717" lon="1.59923">
        <ele>227.466</ele>
        <time>2017-07-02T07:52:49.830Z</time>
      </trkpt>
      <trkpt lat="43.51711" lon="1.59932">
        <ele>227.255</ele>
        <time>2017-07-02T07:52:57.201Z</time>
      </trkpt>
      <trkpt lat="43.51702" lon="1.59938">
        <ele>226.868</ele>
        <time>2017-07-02T07:53:04.620Z</time>
      </trkpt>
      <trkpt lat="43.51695" lon="1.59946">
        <ele>226.381</ele>
        <time>2017-07-02T07:53:12.072Z</time>
      </trkpt>
      <trkpt lat="43.51685" lon="1.59951">
        <ele>225.93</ele>
        <time>2017-07-02T07:53:20.117Z</time>
      </trkpt>
      <trkpt lat="43.51677" lon="1.59957">
        <ele>225.615</ele>
        <time>2017-07-02T07:53:27.781Z</time>
      </trkpt>
      <trkpt lat="43.51669" lon="1.59964">
        <ele>225.406</ele>
        <time>2017-07-02T07:53:35.212Z</time>
      </trkpt>
      <trkpt lat="43.51663" lon="1.59973">
        <ele>225.231</ele>
        <time>2017-07-02T07:53:42.731Z</time>
      </trkpt>
      <trkpt lat="43.51656" lon="1.59983">
        <ele>225.084</ele>
        <time>2017-07-02T07:53:50.540Z</time>
      </trkpt>
      <trkpt lat="43.5165" lon="1.59993">
        <ele>224.94</ele>
        <time>2017-07-02T07:53:58.424Z</time>
      </trkpt>
      <trkpt lat="43.51646" lon="1.60006">
        <ele>224.78</ele>
        <time>2017-07-02T07:54:06.495Z</time>
      </trkpt>
      <trkpt lat="43.51647" lon="1.60018">
        <ele>224.654</ele>
        <time>2017-07-02T07:54:13.759Z</time>
      </trkpt>
      <trkpt lat="43.51649" lon="1.60031">
        <ele>224.646</ele>
        <time>2017-07-02T07:54:21.137Z</time>
      </trkpt>
      <trkpt lat="43.51649" lon="1.60044">
        <ele>224.767</ele>
        <time>2017-07-02T07:54:28.596Z</time>
      </trkpt>
      <trkpt lat="43.5165" lon="1.60056">
        <ele>224.953</ele>
        <time>2017-07-02T07:54:36.133Z</time>
      </trkpt>
      <trkpt lat="43.5165" lon="1.60069">
        <ele>225.141</ele>
        <time>2017-07-02T07:54:43.949Z</time>
      </trkpt>
      <trkpt lat="43.51649" lon="1.60083">
        <ele>225.324</ele>
        <time>2017-07-02T07:54:51.958Z</time>
      </trkpt>
      <trkpt lat="43.51647" lon="1.60096">
        <ele>225.483</ele>
        <time>2017-07-02T07:54:59.587Z</time>
      </trkpt>
      <trkpt lat="43.51644" lon="1.60108">
        <ele>225.577</ele>
        <time>2017-07-02T07:55:07.408Z</time>
      </trkpt>
      <trkpt lat="43.51639" lon="1.6012">
        <ele>225.61</ele>
        <time>2017-07-02T07:55:15.209Z</time>
      </trkpt>
      <trkpt lat="43.51635" lon="1.60132">
        <ele>225.564</ele>
        <time>2017-07-02T07:55:23.149Z</time>
      </trkpt>
      <trkpt lat="43.5163" lon="1.60144">
        <ele>225.394</ele>
        <time>2017-07-02T07:55:31.059Z</time>
      </trkpt>
      <trkpt lat="43.51623" lon="1.60155">
        <ele>225.124</ele>
        <time>2017-07-02T07:55:38.762Z</time>
      </trkpt>
      <trkpt lat="43.51619" lon="1.60168">
        <ele>224.789</ele>
        <time>2017-07-02T07:55:46.532Z</time>
      </trkpt>
      <trkpt lat="43.51613" lon="1.6018">
        <ele>224.427</ele>
        <time>2017-07-02T07:55:54.233Z</time>
      </trkpt>
      <trkpt lat="43.51607" lon="1.6019">
        <ele>224.138</ele>
        <time>2017-07-02T07:56:01.525Z</time>
      </trkpt>
      <trkpt lat="43.51603" lon="1.60202">
        <ele>223.973</ele>
        <time>2017-07-02T07:56:08.549Z</time>
      </trkpt>
      <trkpt lat="43.516" lon="1.60214">
        <ele>223.897</ele>
        <time>2017-07-02T07:56:15.468Z</time>
      </trkpt>
      <trkpt lat="43.51594" lon="1.60225">
        <ele>223.912</ele>
        <time>2017-07-02T07:56:22.901Z</time>
      </trkpt>
      <trkpt lat="43.51589" lon="1.60237">
        <ele>224.008</ele>
        <time>2017-07-02T07:56:30.531Z</time>
      </trkpt>
      <trkpt lat="43.51584" lon="1.60249">
        <ele>224.12</ele>
        <time>2017-07-02T07:56:38.510Z</time>
      </trkpt>
      <trkpt lat="43.51578" lon="1.60259">
        <ele>224.203</ele>
        <time>2017-07-02T07:56:45.559Z</time>
      </trkpt>
      <trkpt lat="43.51572" lon="1.60269">
        <ele>224.267</ele>
        <time>2017-07-02T07:56:52.641Z</time>
      </trkpt>
      <trkpt lat="43.51565" lon="1.60278">
        <ele>224.311</ele>
        <time>2017-07-02T07:56:59.705Z</time>
      </trkpt>
      <trkpt lat="43.51557" lon="1.60286">
        <ele>224.322</ele>
        <time>2017-07-02T07:57:07.557Z</time>
      </trkpt>
      <trkpt lat="43.51548" lon="1.60291">
        <ele>224.279</ele>
        <time>2017-07-02T07:57:14.792Z</time>
      </trkpt>
      <trkpt lat="43.51539" lon="1.60295">
        <ele>224.185</ele>
        <time>2017-07-02T07:57:22.309Z</time>
      </trkpt>
      <trkpt lat="43.5153" lon="1.60298">
        <ele>224.064</ele>
        <time>2017-07-02T07:57:29.199Z</time>
      </trkpt>
      <trkpt lat="43.51521" lon="1.603">
        <ele>223.879</ele>
        <time>2017-07-02T07:57:36.193Z</time>
      </trkpt>
      <trkpt lat="43.51512" lon="1.60299">
        <ele>223.573</ele>
        <time>2017-07-02T07:57:42.976Z</time>
      </trkpt>
      <trkpt lat="43.51503" lon="1.60296">
        <ele>223.237</ele>
        <time>2017-07-02T07:57:49.901Z</time>
      </trkpt>
      <trkpt lat="43.51495" lon="1.60291">
        <ele>222.896</ele>
        <time>2017-07-02T07:57:56.822Z</time>
      </trkpt>
      <trkpt lat="43.51486" lon="1.60286">
        <ele>222.471</ele>
        <time>2017-07-02T07:58:03.838Z</time>
      </trkpt>
      <trkpt lat="43.51477" lon="1.60282">
        <ele>221.944</ele>
        <time>2017-07-02T07:58:11.273Z</time>
      </trkpt>
      <trkpt lat="43.51469" lon="1.60276">
        <ele>221.347</ele>
        <time>2017-07-02T07:58:18.411Z</time>
      </trkpt>
      <trkpt lat="43.51461" lon="1.6027">
        <ele>220.748</ele>
        <time>2017-07-02T07:58:25.723Z</time>
      </trkpt>
      <trkpt lat="43.51453" lon="1.60262">
        <ele>220.209</ele>
        <time>2017-07-02T07:58:33.396Z</time>
      </trkpt>
      <trkpt lat="43.51445" lon="1.60256">
        <ele>219.668</ele>
        <time>2017-07-02T07:58:41.132Z</time>
      </trkpt>
      <trkpt lat="43.51436" lon="1.60248">
        <ele>218.975</ele>
        <time>2017-07-02T07:58:49.823Z</time>
      </trkpt>
      <trkpt lat="43.51428" lon="1.60241">
        <ele>217.974</ele>
        <time>2017-07-02T07:58:57.590Z</time>
      </trkpt>
      <trkpt lat="43.51419" lon="1.60235">
        <ele>216.776</ele>
        <time>2017-07-02T07:59:05.177Z</time>
      </trkpt>
      <trkpt lat="43.5141" lon="1.60231">
        <ele>215.682</ele>
        <time>2017-07-02T07:59:13.311Z</time>
      </trkpt>
      <trkpt lat="43.51401" lon="1.60225">
        <ele>214.745</ele>
        <time>2017-07-02T07:59:21.344Z</time>
      </trkpt>
      <trkpt lat="43.51392" lon="1.60221">
        <ele>213.813</ele>
        <time>2017-07-02T07:59:29.312Z</time>
      </trkpt>
      <trkpt lat="43.51383" lon="1.60214">
        <ele>212.847</ele>
        <time>2017-07-02T07:59:37.297Z</time>
      </trkpt>
      <trkpt lat="43.51376" lon="1.60207">
        <ele>212.031</ele>
        <time>2017-07-02T07:59:44.632Z</time>
      </trkpt>
      <trkpt lat="43.51368" lon="1.60199">
        <ele>211.518</ele>
        <time>2017-07-02T07:59:52.861Z</time>
      </trkpt>
      <trkpt lat="43.5136" lon="1.60191">
        <ele>211.22</ele>
        <time>2017-07-02T08:00:00.477Z</time>
      </trkpt>
      <trkpt lat="43.51351" lon="1.60187">
        <ele>211.012</ele>
        <time>2017-07-02T08:00:08.021Z</time>
      </trkpt>
      <trkpt lat="43.51342" lon="1.6018">
        <ele>210.912</ele>
        <time>2017-07-02T08:00:15.984Z</time>
      </trkpt>
      <trkpt lat="43.51335" lon="1.60173">
        <ele>210.94</ele>
        <time>2017-07-02T08:00:23.157Z</time>
      </trkpt>
      <trkpt lat="43.51326" lon="1.60167">
        <ele>211.036</ele>
        <time>2017-07-02T08:00:31.111Z</time>
      </trkpt>
      <trkpt lat="43.51318" lon="1.60158">
        <ele>211.118</ele>
        <time>2017-07-02T08:00:39.107Z</time>
      </trkpt>
      <trkpt lat="43.51311" lon="1.60148">
        <ele>211.151</ele>
        <time>2017-07-02T08:00:46.952Z</time>
      </trkpt>
      <trkpt lat="43.51303" lon="1.60141">
        <ele>211.187</ele>
        <time>2017-07-02T08:00:55.366Z</time>
      </trkpt>
      <trkpt lat="43.51294" lon="1.60137">
        <ele>211.314</ele>
        <time>2017-07-02T08:01:03.106Z</time>
      </trkpt>
      <trkpt lat="43.51284" lon="1.60137">
        <ele>211.52</ele>
        <time>2017-07-02T08:01:10.690Z</time>
      </trkpt>
      <trkpt lat="43.51278" lon="1.60148">
        <ele>211.655</ele>
        <time>2017-07-02T08:01:18.201Z</time>
      </trkpt>
      <trkpt lat="43.51277" lon="1.60161">
        <ele>211.486</ele>
        <time>2017-07-02T08:01:26.188Z</time>
      </trkpt>
      <trkpt lat="43.51273" lon="1.60172">
        <ele>210.818</ele>
        <time>2017-07-02T08:01:33.762Z</time>
      </trkpt>
      <trkpt lat="43.51266" lon="1.60183">
        <ele>209.808</ele>
        <time>2017-07-02T08:01:42.033Z</time>
      </trkpt>
      <trkpt lat="43.51259" lon="1.60192">
        <ele>208.942</ele>
        <time>2017-07-02T08:01:49.803Z</time>
      </trkpt>
      <trkpt lat="43.51251" lon="1.60199">
        <ele>208.553</ele>
        <time>2017-07-02T08:01:57.113Z</time>
      </trkpt>
      <trkpt lat="43.51245" lon="1.6021">
        <ele>208.591</ele>
        <time>2017-07-02T08:02:05.041Z</time>
      </trkpt>
      <trkpt lat="43.5124" lon="1.6022">
        <ele>208.842</ele>
        <time>2017-07-02T08:02:12.759Z</time>
      </trkpt>
      <trkpt lat="43.51233" lon="1.60228">
        <ele>209.163</ele>
        <time>2017-07-02T08:02:20.193Z</time>
      </trkpt>
      <trkpt lat="43.5123" lon="1.60241">
        <ele>209.506</ele>
        <time>2017-07-02T08:02:28.282Z</time>
      </trkpt>
      <trkpt lat="43.51222" lon="1.6025">
        <ele>209.809</ele>
        <time>2017-07-02T08:02:36.278Z</time>
      </trkpt>
      <trkpt lat="43.51215" lon="1.6026">
        <ele>209.95</ele>
        <time>2017-07-02T08:02:44.038Z</time>
      </trkpt>
      <trkpt lat="43.51209" lon="1.60269">
        <ele>209.879</ele>
        <time>2017-07-02T08:02:51.717Z</time>
      </trkpt>
      <trkpt lat="43.51203" lon="1.6028">
        <ele>209.712</ele>
        <time>2017-07-02T08:02:59.347Z</time>
      </trkpt>
      <trkpt lat="43.51197" lon="1.6029">
        <ele>209.58</ele>
        <time>2017-07-02T08:03:06.431Z</time>
      </trkpt>
      <trkpt lat="43.51192" lon="1.603">
        <ele>209.508</ele>
        <time>2017-07-02T08:03:13.533Z</time>
      </trkpt>
      <trkpt lat="43.51187" lon="1.60311">
        <ele>209.474</ele>
        <time>2017-07-02T08:03:21.000Z</time>
      </trkpt>
      <trkpt lat="43.51182" lon="1.60322">
        <ele>209.471</ele>
        <time>2017-07-02T08:03:28.336Z</time>
      </trkpt>
      <trkpt lat="43.51178" lon="1.60333">
        <ele>209.507</ele>
        <time>2017-07-02T08:03:35.995Z</time>
      </trkpt>
      <trkpt lat="43.5117" lon="1.60342">
        <ele>209.575</ele>
        <time>2017-07-02T08:03:44.120Z</time>
      </trkpt>
      <trkpt lat="43.51164" lon="1.60353">
        <ele>209.634</ele>
        <time>2017-07-02T08:03:52.395Z</time>
      </trkpt>
      <trkpt lat="43.51159" lon="1.60363">
        <ele>209.635</ele>
        <time>2017-07-02T08:03:59.997Z</time>
      </trkpt>
      <trkpt lat="43.51155" lon="1.60376">
        <ele>209.53</ele>
        <time>2017-07-02T08:04:08.091Z</time>
      </trkpt>
      <trkpt lat="43.5115" lon="1.60387">
        <ele>209.27</ele>
        <time>2017-07-02T08:04:15.000Z</time>
      </trkpt>
      <trkpt lat="43.51144" lon="1.60396">
        <ele>208.888</ele>
        <time>2017-07-02T08:04:21.795Z</time>
      </trkpt>
      <trkpt lat="43.51136" lon="1.60404">
        <ele>208.487</ele>
        <time>2017-07-02T08:04:28.855Z</time>
      </trkpt>
      <trkpt lat="43.51134" lon="1.60416">
        <ele>208.134</ele>
        <time>2017-07-02T08:04:35.544Z</time>
      </trkpt>
      <trkpt lat="43.51131" lon="1.60431">
        <ele>207.631</ele>
        <time>2017-07-02T08:04:44.043Z</time>
      </trkpt>
      <trkpt lat="43.51129" lon="1.60444">
        <ele>206.855</ele>
        <time>2017-07-02T08:04:51.278Z</time>
      </trkpt>
      <trkpt lat="43.51126" lon="1.60457">
        <ele>206.129</ele>
        <time>2017-07-02T08:04:58.460Z</time>
      </trkpt>
      <trkpt lat="43.51121" lon="1.60467">
        <ele>205.807</ele>
        <time>2017-07-02T08:05:05.341Z</time>
      </trkpt>
      <trkpt lat="43.51118" lon="1.60479">
        <ele>205.878</ele>
        <time>2017-07-02T08:05:12.468Z</time>
      </trkpt>
      <trkpt lat="43.51114" lon="1.60492">
        <ele>206.195</ele>
        <time>2017-07-02T08:05:20.645Z</time>
      </trkpt>
      <trkpt lat="43.5111" lon="1.60506">
        <ele>206.596</ele>
        <time>2017-07-02T08:05:29.476Z</time>
      </trkpt>
      <trkpt lat="43.51106" lon="1.60519">
        <ele>206.895</ele>
        <time>2017-07-02T08:05:37.841Z</time>
      </trkpt>
      <trkpt lat="43.51101" lon="1.6053">
        <ele>206.876</ele>
        <time>2017-07-02T08:05:45.158Z</time>
      </trkpt>
      <trkpt lat="43.51099" lon="1.60543">
        <ele>206.402</ele>
        <time>2017-07-02T08:05:52.093Z</time>
      </trkpt>
      <trkpt lat="43.51096" lon="1.60557">
        <ele>205.625</ele>
        <time>2017-07-02T08:06:00.090Z</time>
      </trkpt>
      <trkpt lat="43.51094" lon="1.60569">
        <ele>204.89</ele>
        <time>2017-07-02T08:06:07.240Z</time>
      </trkpt>
      <trkpt lat="43.5109" lon="1.60582">
        <ele>204.322</ele>
        <time>2017-07-02T08:06:15.166Z</time>
      </trkpt>
      <trkpt lat="43.51088" lon="1.60597">
        <ele>203.812</ele>
        <time>2017-07-02T08:06:23.795Z</time>
      </trkpt>
      <trkpt lat="43.5109" lon="1.6061">
        <ele>203.368</ele>
        <time>2017-07-02T08:06:31.288Z</time>
      </trkpt>
      <trkpt lat="43.51088" lon="1.60622">
        <ele>203.071</ele>
        <time>2017-07-02T08:06:37.826Z</time>
      </trkpt>
      <trkpt lat="43.51084" lon="1.60634">
        <ele>202.92</ele>
        <time>2017-07-02T08:06:44.623Z</time>
      </trkpt>
      <trkpt lat="43.5108" lon="1.60646">
        <ele>202.855</ele>
        <time>2017-07-02T08:06:51.791Z</time>
      </trkpt>
      <trkpt lat="43.51074" lon="1.60657">
        <ele>202.844</ele>
        <time>2017-07-02T08:06:59.677Z</time>
      </trkpt>
      <trkpt lat="43.51069" lon="1.60669">
        <ele>202.893</ele>
        <time>2017-07-02T08:07:07.141Z</time>
      </trkpt>
      <trkpt lat="43.51063" lon="1.60679">
        <ele>203.026</ele>
        <time>2017-07-02T08:07:14.759Z</time>
      </trkpt>
      <trkpt lat="43.51061" lon="1.60691">
        <ele>203.26</ele>
        <time>2017-07-02T08:07:21.999Z</time>
      </trkpt>
      <trkpt lat="43.51061" lon="1.60691">
        <ele>203.522</ele>
        <time>2017-07-02T08:07:27.999Z</time>
      </trkpt>
      <trkpt lat="43.51061" lon="1.60691">
        <ele>203.522</ele>
        <time>2017-07-02T08:07:27.999Z</time>
      </trkpt>
      <trkpt lat="43.51052" lon="1.60704">
        <ele>203.542</ele>
        <time>2017-07-02T08:07:46.556Z</time>
      </trkpt>
      <trkpt lat="43.51048" lon="1.60715">
        <ele>203.522</ele>
        <time>2017-07-02T08:07:53.942Z</time>
      </trkpt>
      <trkpt lat="43.51043" lon="1.60726">
        <ele>203.824</ele>
        <time>2017-07-02T08:08:01.527Z</time>
      </trkpt>
      <trkpt lat="43.51036" lon="1.60737">
        <ele>204.247</ele>
        <time>2017-07-02T08:08:09.522Z</time>
      </trkpt>
      <trkpt lat="43.51031" lon="1.60747">
        <ele>204.506</ele>
        <time>2017-07-02T08:08:16.890Z</time>
      </trkpt>
      <trkpt lat="43.51025" lon="1.60758">
        <ele>204.499</ele>
        <time>2017-07-02T08:08:25.000Z</time>
      </trkpt>
      <trkpt lat="43.51025" lon="1.60758">
        <ele>204.273</ele>
        <time>2017-07-02T08:08:34.000Z</time>
      </trkpt>
      <trkpt lat="43.51025" lon="1.60758">
        <ele>204.273</ele>
        <time>2017-07-02T08:08:34.000Z</time>
      </trkpt>
      <trkpt lat="43.51016" lon="1.60778">
        <ele>203.96</ele>
        <time>2017-07-02T08:09:20.000Z</time>
      </trkpt>
      <trkpt lat="43.51016" lon="1.60778">
        <ele>203.982</ele>
        <time>2017-07-02T08:09:24.000Z</time>
      </trkpt>
      <trkpt lat="43.51016" lon="1.60778">
        <ele>203.982</ele>
        <time>2017-07-02T08:09:24.000Z</time>
      </trkpt>
      <trkpt lat="43.51008" lon="1.60794">
        <ele>203.896</ele>
        <time>2017-07-02T08:09:50.370Z</time>
      </trkpt>
      <trkpt lat="43.51001" lon="1.60804">
        <ele>204.335</ele>
        <time>2017-07-02T08:10:07.847Z</time>
      </trkpt>
      <trkpt lat="43.50997" lon="1.60816">
        <ele>205.804</ele>
        <time>2017-07-02T08:10:25.373Z</time>
      </trkpt>
      <trkpt lat="43.50993" lon="1.60828">
        <ele>207.528</ele>
        <time>2017-07-02T08:10:37.840Z</time>
      </trkpt>
      <trkpt lat="43.50988" lon="1.60839">
        <ele>208.45</ele>
        <time>2017-07-02T08:10:47.998Z</time>
      </trkpt>
      <trkpt lat="43.50983" lon="1.60849">
        <ele>208.48</ele>
        <time>2017-07-02T08:10:57.653Z</time>
      </trkpt>
      <trkpt lat="43.50977" lon="1.60862">
        <ele>208.048</ele>
        <time>2017-07-02T08:11:08.572Z</time>
      </trkpt>
      <trkpt lat="43.50972" lon="1.60874">
        <ele>207.526</ele>
        <time>2017-07-02T08:11:17.831Z</time>
      </trkpt>
      <trkpt lat="43.50968" lon="1.60886">
        <ele>206.883</ele>
        <time>2017-07-02T08:11:26.831Z</time>
      </trkpt>
      <trkpt lat="43.50964" lon="1.60898">
        <ele>206.008</ele>
        <time>2017-07-02T08:11:34.966Z</time>
      </trkpt>
      <trkpt lat="43.5096" lon="1.60911">
        <ele>205.11</ele>
        <time>2017-07-02T08:11:43.467Z</time>
      </trkpt>
      <trkpt lat="43.50958" lon="1.60923">
        <ele>204.423</ele>
        <time>2017-07-02T08:11:50.894Z</time>
      </trkpt>
      <trkpt lat="43.50956" lon="1.60936">
        <ele>203.883</ele>
        <time>2017-07-02T08:11:58.572Z</time>
      </trkpt>
      <trkpt lat="43.50955" lon="1.60949">
        <ele>203.42</ele>
        <time>2017-07-02T08:12:06.219Z</time>
      </trkpt>
      <trkpt lat="43.50952" lon="1.60962">
        <ele>203.109</ele>
        <time>2017-07-02T08:12:14.126Z</time>
      </trkpt>
      <trkpt lat="43.50948" lon="1.60974">
        <ele>203.012</ele>
        <time>2017-07-02T08:12:21.985Z</time>
      </trkpt>
      <trkpt lat="43.50947" lon="1.60987">
        <ele>203.11</ele>
        <time>2017-07-02T08:12:29.820Z</time>
      </trkpt>
      <trkpt lat="43.50941" lon="1.60997">
        <ele>203.311</ele>
        <time>2017-07-02T08:12:37.188Z</time>
      </trkpt>
      <trkpt lat="43.50935" lon="1.61007">
        <ele>203.463</ele>
        <time>2017-07-02T08:12:44.847Z</time>
      </trkpt>
      <trkpt lat="43.5093" lon="1.61018">
        <ele>203.458</ele>
        <time>2017-07-02T08:12:52.368Z</time>
      </trkpt>
      <trkpt lat="43.50925" lon="1.61031">
        <ele>203.292</ele>
        <time>2017-07-02T08:13:00.688Z</time>
      </trkpt>
      <trkpt lat="43.50918" lon="1.61042">
        <ele>203.023</ele>
        <time>2017-07-02T08:13:09.085Z</time>
      </trkpt>
      <trkpt lat="43.50914" lon="1.61053">
        <ele>202.684</ele>
        <time>2017-07-02T08:13:16.706Z</time>
      </trkpt>
      <trkpt lat="43.50908" lon="1.61064">
        <ele>202.279</ele>
        <time>2017-07-02T08:13:24.561Z</time>
      </trkpt>
      <trkpt lat="43.50904" lon="1.61076">
        <ele>201.866</ele>
        <time>2017-07-02T08:13:32.888Z</time>
      </trkpt>
      <trkpt lat="43.50901" lon="1.6109">
        <ele>201.506</ele>
        <time>2017-07-02T08:13:41.457Z</time>
      </trkpt>
      <trkpt lat="43.50895" lon="1.611">
        <ele>201.171</ele>
        <time>2017-07-02T08:13:49.393Z</time>
      </trkpt>
      <trkpt lat="43.5089" lon="1.61113">
        <ele>200.839</ele>
        <time>2017-07-02T08:13:58.043Z</time>
      </trkpt>
      <trkpt lat="43.50884" lon="1.61122">
        <ele>200.585</ele>
        <time>2017-07-02T08:14:05.563Z</time>
      </trkpt>
      <trkpt lat="43.50876" lon="1.61131">
        <ele>200.47</ele>
        <time>2017-07-02T08:14:13.699Z</time>
      </trkpt>
      <trkpt lat="43.50868" lon="1.61138">
        <ele>200.503</ele>
        <time>2017-07-02T08:14:21.885Z</time>
      </trkpt>
      <trkpt lat="43.5086" lon="1.61145">
        <ele>200.662</ele>
        <time>2017-07-02T08:14:29.713Z</time>
      </trkpt>
      <trkpt lat="43.50851" lon="1.61152">
        <ele>200.883</ele>
        <time>2017-07-02T08:14:37.928Z</time>
      </trkpt>
      <trkpt lat="43.50843" lon="1.6116">
        <ele>201.163</ele>
        <time>2017-07-02T08:14:46.684Z</time>
      </trkpt>
      <trkpt lat="43.50835" lon="1.61167">
        <ele>201.498</ele>
        <time>2017-07-02T08:14:54.376Z</time>
      </trkpt>
      <trkpt lat="43.50827" lon="1.61174">
        <ele>201.825</ele>
        <time>2017-07-02T08:15:02.138Z</time>
      </trkpt>
      <trkpt lat="43.50822" lon="1.61185">
        <ele>202.097</ele>
        <time>2017-07-02T08:15:10.167Z</time>
      </trkpt>
      <trkpt lat="43.50815" lon="1.61193">
        <ele>202.294</ele>
        <time>2017-07-02T08:15:18.583Z</time>
      </trkpt>
      <trkpt lat="43.50807" lon="1.61201">
        <ele>202.471</ele>
        <time>2017-07-02T08:15:26.940Z</time>
      </trkpt>
      <trkpt lat="43.50799" lon="1.61209">
        <ele>202.717</ele>
        <time>2017-07-02T08:15:35.831Z</time>
      </trkpt>
      <trkpt lat="43.50789" lon="1.61213">
        <ele>203.025</ele>
        <time>2017-07-02T08:15:45.089Z</time>
      </trkpt>
      <trkpt lat="43.50783" lon="1.61222">
        <ele>203.363</ele>
        <time>2017-07-02T08:15:53.482Z</time>
      </trkpt>
      <trkpt lat="43.50774" lon="1.61228">
        <ele>203.722</ele>
        <time>2017-07-02T08:16:02.862Z</time>
      </trkpt>
      <trkpt lat="43.50767" lon="1.61239">
        <ele>204.084</ele>
        <time>2017-07-02T08:16:12.037Z</time>
      </trkpt>
      <trkpt lat="43.50759" lon="1.61247">
        <ele>204.407</ele>
        <time>2017-07-02T08:16:20.601Z</time>
      </trkpt>
      <trkpt lat="43.50752" lon="1.61257">
        <ele>204.649</ele>
        <time>2017-07-02T08:16:29.134Z</time>
      </trkpt>
      <trkpt lat="43.50743" lon="1.61272">
        <ele>204.863</ele>
        <time>2017-07-02T08:16:40.301Z</time>
      </trkpt>
      <trkpt lat="43.50736" lon="1.61281">
        <ele>205.135</ele>
        <time>2017-07-02T08:16:48.313Z</time>
      </trkpt>
      <trkpt lat="43.50728" lon="1.6129">
        <ele>205.424</ele>
        <time>2017-07-02T08:16:57.062Z</time>
      </trkpt>
      <trkpt lat="43.50721" lon="1.61299">
        <ele>205.667</ele>
        <time>2017-07-02T08:17:04.797Z</time>
      </trkpt>
      <trkpt lat="43.50714" lon="1.6131">
        <ele>205.877</ele>
        <time>2017-07-02T08:17:13.319Z</time>
      </trkpt>
      <trkpt lat="43.50709" lon="1.6132">
        <ele>206.041</ele>
        <time>2017-07-02T08:17:21.420Z</time>
      </trkpt>
      <trkpt lat="43.50702" lon="1.61328">
        <ele>206.12</ele>
        <time>2017-07-02T08:17:29.917Z</time>
      </trkpt>
      <trkpt lat="43.50693" lon="1.61336">
        <ele>206.071</ele>
        <time>2017-07-02T08:17:38.321Z</time>
      </trkpt>
      <trkpt lat="43.50686" lon="1.61345">
        <ele>205.893</ele>
        <time>2017-07-02T08:17:46.444Z</time>
      </trkpt>
      <trkpt lat="43.50677" lon="1.61353">
        <ele>205.666</ele>
        <time>2017-07-02T08:17:54.396Z</time>
      </trkpt>
      <trkpt lat="43.50671" lon="1.61362">
        <ele>205.446</ele>
        <time>2017-07-02T08:18:01.594Z</time>
      </trkpt>
      <trkpt lat="43.50663" lon="1.61371">
        <ele>205.242</ele>
        <time>2017-07-02T08:18:08.615Z</time>
      </trkpt>
      <trkpt lat="43.50655" lon="1.61376">
        <ele>205.051</ele>
        <time>2017-07-02T08:18:15.622Z</time>
      </trkpt>
      <trkpt lat="43.50646" lon="1.61383">
        <ele>204.831</ele>
        <time>2017-07-02T08:18:23.355Z</time>
      </trkpt>
      <trkpt lat="43.5064" lon="1.61394">
        <ele>204.575</ele>
        <time>2017-07-02T08:18:30.654Z</time>
      </trkpt>
      <trkpt lat="43.50632" lon="1.61403">
        <ele>204.339</ele>
        <time>2017-07-02T08:18:38.160Z</time>
      </trkpt>
      <trkpt lat="43.50623" lon="1.61409">
        <ele>204.225</ele>
        <time>2017-07-02T08:18:45.487Z</time>
      </trkpt>
      <trkpt lat="43.50615" lon="1.61416">
        <ele>204.277</ele>
        <time>2017-07-02T08:18:53.226Z</time>
      </trkpt>
      <trkpt lat="43.5061" lon="1.61428">
        <ele>204.387</ele>
        <time>2017-07-02T08:19:01.761Z</time>
      </trkpt>
      <trkpt lat="43.50605" lon="1.61441">
        <ele>204.468</ele>
        <time>2017-07-02T08:19:10.715Z</time>
      </trkpt>
      <trkpt lat="43.50596" lon="1.61452">
        <ele>204.505</ele>
        <time>2017-07-02T08:19:21.319Z</time>
      </trkpt>
      <trkpt lat="43.50592" lon="1.61463">
        <ele>204.486</ele>
        <time>2017-07-02T08:19:29.779Z</time>
      </trkpt>
      <trkpt lat="43.50595" lon="1.61476">
        <ele>204.356</ele>
        <time>2017-07-02T08:19:38.769Z</time>
      </trkpt>
      <trkpt lat="43.50598" lon="1.61488">
        <ele>203.965</ele>
        <time>2017-07-02T08:19:47.330Z</time>
      </trkpt>
      <trkpt lat="43.50603" lon="1.61499">
        <ele>203.316</ele>
        <time>2017-07-02T08:19:56.000Z</time>
      </trkpt>
      <trkpt lat="43.50603" lon="1.61499">
        <ele>202.732</ele>
        <time>2017-07-02T08:20:01.000Z</time>
      </trkpt>
      <trkpt lat="43.50603" lon="1.61499">
        <ele>202.449</ele>
        <time>2017-07-02T08:20:18.000Z</time>
      </trkpt>
      <trkpt lat="43.50603" lon="1.61499">
        <ele>202.449</ele>
        <time>2017-07-02T08:20:18.000Z</time>
      </trkpt>
      <trkpt lat="43.5061" lon="1.61513">
        <ele>202.398</ele>
        <time>2017-07-02T08:20:39.781Z</time>
      </trkpt>
      <trkpt lat="43.50617" lon="1.61521">
        <ele>202.297</ele>
        <time>2017-07-02T08:20:48.345Z</time>
      </trkpt>
      <trkpt lat="43.50626" lon="1.61529">
        <ele>202.102</ele>
        <time>2017-07-02T08:20:57.130Z</time>
      </trkpt>
      <trkpt lat="43.50634" lon="1.61536">
        <ele>202.091</ele>
        <time>2017-07-02T08:21:05.822Z</time>
      </trkpt>
      <trkpt lat="43.50641" lon="1.61544">
        <ele>202.422</ele>
        <time>2017-07-02T08:21:14.627Z</time>
      </trkpt>
      <trkpt lat="43.50649" lon="1.61554">
        <ele>202.888</ele>
        <time>2017-07-02T08:21:23.159Z</time>
      </trkpt>
      <trkpt lat="43.50656" lon="1.61563">
        <ele>203.295</ele>
        <time>2017-07-02T08:21:31.394Z</time>
      </trkpt>
      <trkpt lat="43.50665" lon="1.61569">
        <ele>203.617</ele>
        <time>2017-07-02T08:21:39.895Z</time>
      </trkpt>
      <trkpt lat="43.50669" lon="1.6158">
        <ele>203.864</ele>
        <time>2017-07-02T08:21:48.000Z</time>
      </trkpt>
      <trkpt lat="43.50669" lon="1.6158">
        <ele>204.061</ele>
        <time>2017-07-02T08:21:50.000Z</time>
      </trkpt>
      <trkpt lat="43.50669" lon="1.6158">
        <ele>204.061</ele>
        <time>2017-07-02T08:21:50.000Z</time>
      </trkpt>
      <trkpt lat="43.50676" lon="1.61589">
        <ele>203.9</ele>
        <time>2017-07-02T08:22:00.000Z</time>
      </trkpt>
      <trkpt lat="43.50676" lon="1.61589">
        <ele>203.82</ele>
        <time>2017-07-02T08:22:02.000Z</time>
      </trkpt>
      <trkpt lat="43.50676" lon="1.61589">
        <ele>203.82</ele>
        <time>2017-07-02T08:22:02.000Z</time>
      </trkpt>
      <trkpt lat="43.50685" lon="1.61601">
        <ele>203.728</ele>
        <time>2017-07-02T08:22:48.000Z</time>
      </trkpt>
      <trkpt lat="43.50685" lon="1.61601">
        <ele>203.669</ele>
        <time>2017-07-02T08:22:50.000Z</time>
      </trkpt>
      <trkpt lat="43.50693" lon="1.61614">
        <ele>203.344</ele>
        <time>2017-07-02T08:24:53.000Z</time>
      </trkpt>
      <trkpt lat="43.50693" lon="1.61614">
        <ele>203.344</ele>
        <time>2017-07-02T08:24:53.000Z</time>
      </trkpt>
      <trkpt lat="43.50689" lon="1.61631">
        <ele>203.235</ele>
        <time>2017-07-02T08:24:59.000Z</time>
      </trkpt>
      <trkpt lat="43.50684" lon="1.61643">
        <ele>203.088</ele>
        <time>2017-07-02T08:25:07.000Z</time>
      </trkpt>
      <trkpt lat="43.50678" lon="1.61653">
        <ele>202.823</ele>
        <time>2017-07-02T08:25:14.000Z</time>
      </trkpt>
      <trkpt lat="43.50672" lon="1.61664">
        <ele>202.554</ele>
        <time>2017-07-02T08:25:22.000Z</time>
      </trkpt>
      <trkpt lat="43.50668" lon="1.61675">
        <ele>202.343</ele>
        <time>2017-07-02T08:25:29.000Z</time>
      </trkpt>
      <trkpt lat="43.50661" lon="1.61685">
        <ele>202.136</ele>
        <time>2017-07-02T08:25:37.000Z</time>
      </trkpt>
      <trkpt lat="43.50656" lon="1.61697">
        <ele>201.928</ele>
        <time>2017-07-02T08:25:44.000Z</time>
      </trkpt>
      <trkpt lat="43.50652" lon="1.61709">
        <ele>201.743</ele>
        <time>2017-07-02T08:25:53.000Z</time>
      </trkpt>
      <trkpt lat="43.5065" lon="1.61722">
        <ele>201.531</ele>
        <time>2017-07-02T08:25:59.000Z</time>
      </trkpt>
      <trkpt lat="43.5065" lon="1.61722">
        <ele>201.278</ele>
        <time>2017-07-02T08:26:05.000Z</time>
      </trkpt>
      <trkpt lat="43.5065" lon="1.61722">
        <ele>201.278</ele>
        <time>2017-07-02T08:26:05.000Z</time>
      </trkpt>
      <trkpt lat="43.50653" lon="1.61734">
        <ele>201.037</ele>
        <time>2017-07-02T08:26:16.034Z</time>
      </trkpt>
      <trkpt lat="43.50649" lon="1.61747">
        <ele>201.558</ele>
        <time>2017-07-02T08:26:23.000Z</time>
      </trkpt>
      <trkpt lat="43.50649" lon="1.61747">
        <ele>202.79</ele>
        <time>2017-07-02T08:26:37.000Z</time>
      </trkpt>
      <trkpt lat="43.50649" lon="1.61747">
        <ele>202.79</ele>
        <time>2017-07-02T08:26:37.000Z</time>
      </trkpt>
      <trkpt lat="43.50644" lon="1.61764">
        <ele>203.635</ele>
        <time>2017-07-02T08:27:04.702Z</time>
      </trkpt>
      <trkpt lat="43.50644" lon="1.61778">
        <ele>203.552</ele>
        <time>2017-07-02T08:27:24.906Z</time>
      </trkpt>
      <trkpt lat="43.50635" lon="1.6179">
        <ele>204.488</ele>
        <time>2017-07-02T08:27:50.803Z</time>
      </trkpt>
      <trkpt lat="43.50632" lon="1.61802">
        <ele>205.73</ele>
        <time>2017-07-02T08:28:04.679Z</time>
      </trkpt>
      <trkpt lat="43.50625" lon="1.61812">
        <ele>206.383</ele>
        <time>2017-07-02T08:28:15.186Z</time>
      </trkpt>
      <trkpt lat="43.50617" lon="1.61821">
        <ele>206.548</ele>
        <time>2017-07-02T08:28:25.204Z</time>
      </trkpt>
      <trkpt lat="43.50612" lon="1.61833">
        <ele>206.597</ele>
        <time>2017-07-02T08:28:35.381Z</time>
      </trkpt>
      <trkpt lat="43.50604" lon="1.6184">
        <ele>206.729</ele>
        <time>2017-07-02T08:28:44.481Z</time>
      </trkpt>
      <trkpt lat="43.50597" lon="1.61849">
        <ele>206.968</ele>
        <time>2017-07-02T08:28:53.645Z</time>
      </trkpt>
      <trkpt lat="43.50594" lon="1.61862">
        <ele>207.502</ele>
        <time>2017-07-02T08:29:03.358Z</time>
      </trkpt>
      <trkpt lat="43.50587" lon="1.61872">
        <ele>208.48</ele>
        <time>2017-07-02T08:29:13.448Z</time>
      </trkpt>
      <trkpt lat="43.5058" lon="1.61879">
        <ele>209.612</ele>
        <time>2017-07-02T08:29:22.866Z</time>
      </trkpt>
      <trkpt lat="43.50577" lon="1.61892">
        <ele>210.47</ele>
        <time>2017-07-02T08:29:32.620Z</time>
      </trkpt>
      <trkpt lat="43.50569" lon="1.61901">
        <ele>210.982</ele>
        <time>2017-07-02T08:29:42.269Z</time>
      </trkpt>
      <trkpt lat="43.50562" lon="1.61912">
        <ele>211.332</ele>
        <time>2017-07-02T08:29:52.812Z</time>
      </trkpt>
      <trkpt lat="43.50557" lon="1.61923">
        <ele>211.667</ele>
        <time>2017-07-02T08:30:02.271Z</time>
      </trkpt>
      <trkpt lat="43.5055" lon="1.61931">
        <ele>212.006</ele>
        <time>2017-07-02T08:30:11.285Z</time>
      </trkpt>
      <trkpt lat="43.50543" lon="1.61939">
        <ele>212.359</ele>
        <time>2017-07-02T08:30:20.271Z</time>
      </trkpt>
      <trkpt lat="43.50538" lon="1.6195">
        <ele>212.686</ele>
        <time>2017-07-02T08:30:29.716Z</time>
      </trkpt>
      <trkpt lat="43.50534" lon="1.61964">
        <ele>212.902</ele>
        <time>2017-07-02T08:30:40.001Z</time>
      </trkpt>
      <trkpt lat="43.50534" lon="1.61964">
        <ele>212.989</ele>
        <time>2017-07-02T08:30:42.999Z</time>
      </trkpt>
      <trkpt lat="43.50534" lon="1.61964">
        <ele>212.989</ele>
        <time>2017-07-02T08:30:42.999Z</time>
      </trkpt>
      <trkpt lat="43.50529" lon="1.61976">
        <ele>212.777</ele>
        <time>2017-07-02T08:31:01.000Z</time>
      </trkpt>
      <trkpt lat="43.50529" lon="1.61976">
        <ele>212.732</ele>
        <time>2017-07-02T08:31:02.000Z</time>
      </trkpt>
      <trkpt lat="43.50529" lon="1.61976">
        <ele>212.732</ele>
        <time>2017-07-02T08:31:02.000Z</time>
      </trkpt>
      <trkpt lat="43.50521" lon="1.61984">
        <ele>212.535</ele>
        <time>2017-07-02T08:31:17.166Z</time>
      </trkpt>
      <trkpt lat="43.50515" lon="1.61993">
        <ele>212.743</ele>
        <time>2017-07-02T08:31:24.550Z</time>
      </trkpt>
      <trkpt lat="43.50512" lon="1.62006">
        <ele>213.434</ele>
        <time>2017-07-02T08:31:32.557Z</time>
      </trkpt>
      <trkpt lat="43.50505" lon="1.62016">
        <ele>214.306</ele>
        <time>2017-07-02T08:31:40.875Z</time>
      </trkpt>
      <trkpt lat="43.50499" lon="1.62025">
        <ele>215.011</ele>
        <time>2017-07-02T08:31:48.244Z</time>
      </trkpt>
      <trkpt lat="43.50492" lon="1.62036">
        <ele>215.541</ele>
        <time>2017-07-02T08:31:56.695Z</time>
      </trkpt>
      <trkpt lat="43.50485" lon="1.62044">
        <ele>216.019</ele>
        <time>2017-07-02T08:32:04.451Z</time>
      </trkpt>
      <trkpt lat="43.50478" lon="1.62053">
        <ele>216.533</ele>
        <time>2017-07-02T08:32:12.125Z</time>
      </trkpt>
      <trkpt lat="43.50472" lon="1.62062">
        <ele>217.016</ele>
        <time>2017-07-02T08:32:19.283Z</time>
      </trkpt>
      <trkpt lat="43.50466" lon="1.62074">
        <ele>217.364</ele>
        <time>2017-07-02T08:32:27.151Z</time>
      </trkpt>
      <trkpt lat="43.5046" lon="1.62084">
        <ele>217.611</ele>
        <time>2017-07-02T08:32:33.804Z</time>
      </trkpt>
      <trkpt lat="43.50454" lon="1.62095">
        <ele>217.904</ele>
        <time>2017-07-02T08:32:40.378Z</time>
      </trkpt>
      <trkpt lat="43.50449" lon="1.62107">
        <ele>218.289</ele>
        <time>2017-07-02T08:32:47.018Z</time>
      </trkpt>
      <trkpt lat="43.50444" lon="1.62118">
        <ele>218.668</ele>
        <time>2017-07-02T08:32:53.180Z</time>
      </trkpt>
      <trkpt lat="43.50437" lon="1.62128">
        <ele>218.967</ele>
        <time>2017-07-02T08:32:59.254Z</time>
      </trkpt>
      <trkpt lat="43.50432" lon="1.62139">
        <ele>219.288</ele>
        <time>2017-07-02T08:33:05.635Z</time>
      </trkpt>
      <trkpt lat="43.50427" lon="1.6215">
        <ele>219.814</ele>
        <time>2017-07-02T08:33:11.566Z</time>
      </trkpt>
      <trkpt lat="43.50422" lon="1.62162">
        <ele>220.624</ele>
        <time>2017-07-02T08:33:18.176Z</time>
      </trkpt>
      <trkpt lat="43.5042" lon="1.62174">
        <ele>221.629</ele>
        <time>2017-07-02T08:33:24.488Z</time>
      </trkpt>
      <trkpt lat="43.50421" lon="1.62187">
        <ele>222.673</ele>
        <time>2017-07-02T08:33:30.908Z</time>
      </trkpt>
      <trkpt lat="43.50423" lon="1.62199">
        <ele>223.633</ele>
        <time>2017-07-02T08:33:37.578Z</time>
      </trkpt>
      <trkpt lat="43.50426" lon="1.62211">
        <ele>224.363</ele>
        <time>2017-07-02T08:33:44.167Z</time>
      </trkpt>
      <trkpt lat="43.50431" lon="1.62222">
        <ele>224.651</ele>
        <time>2017-07-02T08:33:50.777Z</time>
      </trkpt>
      <trkpt lat="43.50436" lon="1.62234">
        <ele>224.446</ele>
        <time>2017-07-02T08:33:58.550Z</time>
      </trkpt>
      <trkpt lat="43.50441" lon="1.62247">
        <ele>223.836</ele>
        <time>2017-07-02T08:34:07.285Z</time>
      </trkpt>
      <trkpt lat="43.50443" lon="1.6226">
        <ele>222.875</ele>
        <time>2017-07-02T08:34:15.567Z</time>
      </trkpt>
      <trkpt lat="43.50446" lon="1.62272">
        <ele>221.723</ele>
        <time>2017-07-02T08:34:22.871Z</time>
      </trkpt>
      <trkpt lat="43.50445" lon="1.62285">
        <ele>220.69</ele>
        <time>2017-07-02T08:34:30.114Z</time>
      </trkpt>
      <trkpt lat="43.50443" lon="1.62297">
        <ele>219.849</ele>
        <time>2017-07-02T08:34:37.313Z</time>
      </trkpt>
      <trkpt lat="43.50444" lon="1.62311">
        <ele>219.06</ele>
        <time>2017-07-02T08:34:44.973Z</time>
      </trkpt>
      <trkpt lat="43.50444" lon="1.62324">
        <ele>218.268</ele>
        <time>2017-07-02T08:34:52.498Z</time>
      </trkpt>
      <trkpt lat="43.50443" lon="1.62337">
        <ele>217.423</ele>
        <time>2017-07-02T08:34:59.846Z</time>
      </trkpt>
      <trkpt lat="43.50442" lon="1.62351">
        <ele>216.546</ele>
        <time>2017-07-02T08:35:07.632Z</time>
      </trkpt>
      <trkpt lat="43.50442" lon="1.62365">
        <ele>215.759</ele>
        <time>2017-07-02T08:35:15.656Z</time>
      </trkpt>
      <trkpt lat="43.50442" lon="1.62379">
        <ele>215.044</ele>
        <time>2017-07-02T08:35:23.412Z</time>
      </trkpt>
      <trkpt lat="43.50443" lon="1.62391">
        <ele>214.348</ele>
        <time>2017-07-02T08:35:30.612Z</time>
      </trkpt>
      <trkpt lat="43.50445" lon="1.62404">
        <ele>213.753</ele>
        <time>2017-07-02T08:35:38.127Z</time>
      </trkpt>
      <trkpt lat="43.50443" lon="1.62418">
        <ele>213.253</ele>
        <time>2017-07-02T08:35:46.292Z</time>
      </trkpt>
      <trkpt lat="43.50446" lon="1.6243">
        <ele>212.754</ele>
        <time>2017-07-02T08:35:53.561Z</time>
      </trkpt>
      <trkpt lat="43.50449" lon="1.62444">
        <ele>212.248</ele>
        <time>2017-07-02T08:36:01.736Z</time>
      </trkpt>
      <trkpt lat="43.50452" lon="1.62458">
        <ele>211.797</ele>
        <time>2017-07-02T08:36:09.764Z</time>
      </trkpt>
      <trkpt lat="43.50455" lon="1.6247">
        <ele>211.428</ele>
        <time>2017-07-02T08:36:17.077Z</time>
      </trkpt>
      <trkpt lat="43.50458" lon="1.62483">
        <ele>211.125</ele>
        <time>2017-07-02T08:36:25.165Z</time>
      </trkpt>
      <trkpt lat="43.50461" lon="1.62496">
        <ele>210.724</ele>
        <time>2017-07-02T08:36:32.806Z</time>
      </trkpt>
      <trkpt lat="43.50463" lon="1.62509">
        <ele>209.964</ele>
        <time>2017-07-02T08:36:40.404Z</time>
      </trkpt>
      <trkpt lat="43.50467" lon="1.62521">
        <ele>208.933</ele>
        <time>2017-07-02T08:36:48.170Z</time>
      </trkpt>
      <trkpt lat="43.50468" lon="1.62534">
        <ele>207.929</ele>
        <time>2017-07-02T08:36:55.653Z</time>
      </trkpt>
      <trkpt lat="43.5047" lon="1.62547">
        <ele>207.039</ele>
        <time>2017-07-02T08:37:03.021Z</time>
      </trkpt>
      <trkpt lat="43.50472" lon="1.62559">
        <ele>206.269</ele>
        <time>2017-07-02T08:37:10.241Z</time>
      </trkpt>
      <trkpt lat="43.50474" lon="1.62572">
        <ele>205.537</ele>
        <time>2017-07-02T08:37:18.030Z</time>
      </trkpt>
      <trkpt lat="43.50475" lon="1.62586">
        <ele>204.737</ele>
        <time>2017-07-02T08:37:26.097Z</time>
      </trkpt>
      <trkpt lat="43.50477" lon="1.62599">
        <ele>203.946</ele>
        <time>2017-07-02T08:37:33.511Z</time>
      </trkpt>
      <trkpt lat="43.50479" lon="1.62613">
        <ele>203.247</ele>
        <time>2017-07-02T08:37:41.893Z</time>
      </trkpt>
      <trkpt lat="43.50479" lon="1.62626">
        <ele>202.643</ele>
        <time>2017-07-02T08:37:49.478Z</time>
      </trkpt>
      <trkpt lat="43.50482" lon="1.62639">
        <ele>202.132</ele>
        <time>2017-07-02T08:37:57.199Z</time>
      </trkpt>
      <trkpt lat="43.50486" lon="1.62651">
        <ele>201.631</ele>
        <time>2017-07-02T08:38:04.564Z</time>
      </trkpt>
      <trkpt lat="43.50489" lon="1.62663">
        <ele>201.001</ele>
        <time>2017-07-02T08:38:11.761Z</time>
      </trkpt>
      <trkpt lat="43.50491" lon="1.62675">
        <ele>200.327</ele>
        <time>2017-07-02T08:38:18.838Z</time>
      </trkpt>
      <trkpt lat="43.50494" lon="1.62687">
        <ele>199.809</ele>
        <time>2017-07-02T08:38:26.009Z</time>
      </trkpt>
      <trkpt lat="43.50495" lon="1.62701">
        <ele>199.36</ele>
        <time>2017-07-02T08:38:34.019Z</time>
      </trkpt>
      <trkpt lat="43.50497" lon="1.62714">
        <ele>198.859</ele>
        <time>2017-07-02T08:38:41.313Z</time>
      </trkpt>
      <trkpt lat="43.50499" lon="1.62727">
        <ele>198.306</ele>
        <time>2017-07-02T08:38:49.155Z</time>
      </trkpt>
      <trkpt lat="43.505" lon="1.62741">
        <ele>197.604</ele>
        <time>2017-07-02T08:38:56.910Z</time>
      </trkpt>
      <trkpt lat="43.50501" lon="1.62754">
        <ele>196.669</ele>
        <time>2017-07-02T08:39:04.411Z</time>
      </trkpt>
      <trkpt lat="43.50504" lon="1.62767">
        <ele>195.654</ele>
        <time>2017-07-02T08:39:12.144Z</time>
      </trkpt>
      <trkpt lat="43.50506" lon="1.62781">
        <ele>194.697</ele>
        <time>2017-07-02T08:39:20.266Z</time>
      </trkpt>
      <trkpt lat="43.5051" lon="1.62794">
        <ele>193.801</ele>
        <time>2017-07-02T08:39:28.305Z</time>
      </trkpt>
      <trkpt lat="43.50516" lon="1.62803">
        <ele>192.879</ele>
        <time>2017-07-02T08:39:35.591Z</time>
      </trkpt>
      <trkpt lat="43.50525" lon="1.6281">
        <ele>191.845</ele>
        <time>2017-07-02T08:39:43.588Z</time>
      </trkpt>
      <trkpt lat="43.50531" lon="1.62821">
        <ele>190.85</ele>
        <time>2017-07-02T08:39:51.914Z</time>
      </trkpt>
      <trkpt lat="43.50537" lon="1.62831">
        <ele>190.17</ele>
        <time>2017-07-02T08:39:59.976Z</time>
      </trkpt>
      <trkpt lat="43.50545" lon="1.62838">
        <ele>189.801</ele>
        <time>2017-07-02T08:40:07.714Z</time>
      </trkpt>
      <trkpt lat="43.50554" lon="1.62843">
        <ele>189.428</ele>
        <time>2017-07-02T08:40:15.968Z</time>
      </trkpt>
      <trkpt lat="43.50561" lon="1.62851">
        <ele>188.705</ele>
        <time>2017-07-02T08:40:23.926Z</time>
      </trkpt>
      <trkpt lat="43.50568" lon="1.6286">
        <ele>187.577</ele>
        <time>2017-07-02T08:40:31.434Z</time>
      </trkpt>
      <trkpt lat="43.50576" lon="1.6287">
        <ele>186.3</ele>
        <time>2017-07-02T08:40:39.845Z</time>
      </trkpt>
      <trkpt lat="43.50584" lon="1.62877">
        <ele>185.154</ele>
        <time>2017-07-02T08:40:47.420Z</time>
      </trkpt>
      <trkpt lat="43.50588" lon="1.62888">
        <ele>184.247</ele>
        <time>2017-07-02T08:40:54.467Z</time>
      </trkpt>
      <trkpt lat="43.50593" lon="1.629">
        <ele>183.543</ele>
        <time>2017-07-02T08:41:02.160Z</time>
      </trkpt>
      <trkpt lat="43.50599" lon="1.62909">
        <ele>182.908</ele>
        <time>2017-07-02T08:41:09.385Z</time>
      </trkpt>
      <trkpt lat="43.50606" lon="1.62919">
        <ele>182.204</ele>
        <time>2017-07-02T08:41:17.002Z</time>
      </trkpt>
      <trkpt lat="43.50614" lon="1.62928">
        <ele>181.374</ele>
        <time>2017-07-02T08:41:25.264Z</time>
      </trkpt>
      <trkpt lat="43.50623" lon="1.62936">
        <ele>180.511</ele>
        <time>2017-07-02T08:41:32.996Z</time>
      </trkpt>
      <trkpt lat="43.50631" lon="1.62945">
        <ele>179.837</ele>
        <time>2017-07-02T08:41:40.906Z</time>
      </trkpt>
      <trkpt lat="43.50637" lon="1.62954">
        <ele>179.504</ele>
        <time>2017-07-02T08:41:48.419Z</time>
      </trkpt>
      <trkpt lat="43.50643" lon="1.62965">
        <ele>179.426</ele>
        <time>2017-07-02T08:41:55.827Z</time>
      </trkpt>
      <trkpt lat="43.5065" lon="1.62974">
        <ele>179.459</ele>
        <time>2017-07-02T08:42:03.637Z</time>
      </trkpt>
      <trkpt lat="43.50659" lon="1.62977">
        <ele>179.432</ele>
        <time>2017-07-02T08:42:10.835Z</time>
      </trkpt>
      <trkpt lat="43.50667" lon="1.62987">
        <ele>179.228</ele>
        <time>2017-07-02T08:42:19.481Z</time>
      </trkpt>
      <trkpt lat="43.50671" lon="1.63">
        <ele>178.819</ele>
        <time>2017-07-02T08:42:27.440Z</time>
      </trkpt>
      <trkpt lat="43.50677" lon="1.63012">
        <ele>178.253</ele>
        <time>2017-07-02T08:42:36.077Z</time>
      </trkpt>
      <trkpt lat="43.50684" lon="1.6302">
        <ele>177.713</ele>
        <time>2017-07-02T08:42:43.718Z</time>
      </trkpt>
      <trkpt lat="43.50692" lon="1.63029">
        <ele>177.385</ele>
        <time>2017-07-02T08:42:51.817Z</time>
      </trkpt>
      <trkpt lat="43.50699" lon="1.6304">
        <ele>177.243</ele>
        <time>2017-07-02T08:43:00.095Z</time>
      </trkpt>
      <trkpt lat="43.50708" lon="1.63045">
        <ele>177.105</ele>
        <time>2017-07-02T08:43:07.631Z</time>
      </trkpt>
      <trkpt lat="43.50715" lon="1.63054">
        <ele>176.834</ele>
        <time>2017-07-02T08:43:15.359Z</time>
      </trkpt>
      <trkpt lat="43.50722" lon="1.63064">
        <ele>176.498</ele>
        <time>2017-07-02T08:43:22.618Z</time>
      </trkpt>
      <trkpt lat="43.50728" lon="1.63072">
        <ele>176.22</ele>
        <time>2017-07-02T08:43:29.577Z</time>
      </trkpt>
      <trkpt lat="43.50736" lon="1.63081">
        <ele>176.003</ele>
        <time>2017-07-02T08:43:37.158Z</time>
      </trkpt>
      <trkpt lat="43.50739" lon="1.63093">
        <ele>175.833</ele>
        <time>2017-07-02T08:43:44.675Z</time>
      </trkpt>
      <trkpt lat="43.50748" lon="1.63098">
        <ele>175.694</ele>
        <time>2017-07-02T08:43:52.628Z</time>
      </trkpt>
      <trkpt lat="43.50758" lon="1.63102">
        <ele>175.53</ele>
        <time>2017-07-02T08:44:00.011Z</time>
      </trkpt>
      <trkpt lat="43.50767" lon="1.63103">
        <ele>175.33</ele>
        <time>2017-07-02T08:44:07.078Z</time>
      </trkpt>
      <trkpt lat="43.50775" lon="1.6311">
        <ele>175.054</ele>
        <time>2017-07-02T08:44:14.512Z</time>
      </trkpt>
      <trkpt lat="43.50784" lon="1.63115">
        <ele>174.551</ele>
        <time>2017-07-02T08:44:22.170Z</time>
      </trkpt>
      <trkpt lat="43.50793" lon="1.63121">
        <ele>173.82</ele>
        <time>2017-07-02T08:44:29.929Z</time>
      </trkpt>
      <trkpt lat="43.50801" lon="1.63128">
        <ele>173.15</ele>
        <time>2017-07-02T08:44:37.377Z</time>
      </trkpt>
      <trkpt lat="43.50807" lon="1.63141">
        <ele>172.762</ele>
        <time>2017-07-02T08:44:45.293Z</time>
      </trkpt>
      <trkpt lat="43.50816" lon="1.63144">
        <ele>172.587</ele>
        <time>2017-07-02T08:44:52.617Z</time>
      </trkpt>
      <trkpt lat="43.50824" lon="1.6315">
        <ele>172.445</ele>
        <time>2017-07-02T08:44:59.880Z</time>
      </trkpt>
      <trkpt lat="43.5083" lon="1.6316">
        <ele>172.265</ele>
        <time>2017-07-02T08:45:06.776Z</time>
      </trkpt>
      <trkpt lat="43.50841" lon="1.63159">
        <ele>172.105</ele>
        <time>2017-07-02T08:45:14.687Z</time>
      </trkpt>
      <trkpt lat="43.5085" lon="1.63154">
        <ele>172.014</ele>
        <time>2017-07-02T08:45:22.460Z</time>
      </trkpt>
      <trkpt lat="43.50857" lon="1.63146">
        <ele>171.962</ele>
        <time>2017-07-02T08:45:29.893Z</time>
      </trkpt>
      <trkpt lat="43.50866" lon="1.63138">
        <ele>171.88</ele>
        <time>2017-07-02T08:45:37.974Z</time>
      </trkpt>
      <trkpt lat="43.50874" lon="1.6313">
        <ele>171.68</ele>
        <time>2017-07-02T08:45:45.866Z</time>
      </trkpt>
      <trkpt lat="43.50882" lon="1.63124">
        <ele>171.39</ele>
        <time>2017-07-02T08:45:53.515Z</time>
      </trkpt>
      <trkpt lat="43.50887" lon="1.63112">
        <ele>171.127</ele>
        <time>2017-07-02T08:46:01.716Z</time>
      </trkpt>
      <trkpt lat="43.50893" lon="1.63102">
        <ele>170.917</ele>
        <time>2017-07-02T08:46:09.220Z</time>
      </trkpt>
      <trkpt lat="43.50899" lon="1.63092">
        <ele>170.716</ele>
        <time>2017-07-02T08:46:16.644Z</time>
      </trkpt>
      <trkpt lat="43.50906" lon="1.63083">
        <ele>170.556</ele>
        <time>2017-07-02T08:46:24.305Z</time>
      </trkpt>
      <trkpt lat="43.50912" lon="1.63073">
        <ele>170.489</ele>
        <time>2017-07-02T08:46:32.107Z</time>
      </trkpt>
      <trkpt lat="43.5092" lon="1.63065">
        <ele>170.529</ele>
        <time>2017-07-02T08:46:40.256Z</time>
      </trkpt>
      <trkpt lat="43.50927" lon="1.63054">
        <ele>170.634</ele>
        <time>2017-07-02T08:46:48.282Z</time>
      </trkpt>
      <trkpt lat="43.50933" lon="1.63045">
        <ele>170.766</ele>
        <time>2017-07-02T08:46:56.129Z</time>
      </trkpt>
      <trkpt lat="43.50942" lon="1.63036">
        <ele>170.971</ele>
        <time>2017-07-02T08:47:04.941Z</time>
      </trkpt>
      <trkpt lat="43.50945" lon="1.63024">
        <ele>171.276</ele>
        <time>2017-07-02T08:47:12.485Z</time>
      </trkpt>
      <trkpt lat="43.50949" lon="1.63012">
        <ele>171.577</ele>
        <time>2017-07-02T08:47:20.382Z</time>
      </trkpt>
      <trkpt lat="43.50953" lon="1.63001">
        <ele>171.819</ele>
        <time>2017-07-02T08:47:28.006Z</time>
      </trkpt>
      <trkpt lat="43.5096" lon="1.62991">
        <ele>172.045</ele>
        <time>2017-07-02T08:47:36.051Z</time>
      </trkpt>
      <trkpt lat="43.50965" lon="1.6298">
        <ele>172.226</ele>
        <time>2017-07-02T08:47:43.645Z</time>
      </trkpt>
      <trkpt lat="43.5097" lon="1.62969">
        <ele>172.325</ele>
        <time>2017-07-02T08:47:51.442Z</time>
      </trkpt>
      <trkpt lat="43.50976" lon="1.6296">
        <ele>172.393</ele>
        <time>2017-07-02T08:47:59.034Z</time>
      </trkpt>
      <trkpt lat="43.50984" lon="1.6295">
        <ele>172.454</ele>
        <time>2017-07-02T08:48:07.849Z</time>
      </trkpt>
      <trkpt lat="43.5099" lon="1.62938">
        <ele>172.476</ele>
        <time>2017-07-02T08:48:16.666Z</time>
      </trkpt>
      <trkpt lat="43.50996" lon="1.62928">
        <ele>172.447</ele>
        <time>2017-07-02T08:48:24.500Z</time>
      </trkpt>
      <trkpt lat="43.51002" lon="1.62917">
        <ele>172.482</ele>
        <time>2017-07-02T08:48:32.548Z</time>
      </trkpt>
      <trkpt lat="43.51005" lon="1.62904">
        <ele>172.696</ele>
        <time>2017-07-02T08:48:40.438Z</time>
      </trkpt>
      <trkpt lat="43.51009" lon="1.62893">
        <ele>173.094</ele>
        <time>2017-07-02T08:48:48.025Z</time>
      </trkpt>
      <trkpt lat="43.51015" lon="1.62883">
        <ele>173.656</ele>
        <time>2017-07-02T08:48:56.073Z</time>
      </trkpt>
      <trkpt lat="43.5102" lon="1.62871">
        <ele>174.336</ele>
        <time>2017-07-02T08:49:04.581Z</time>
      </trkpt>
      <trkpt lat="43.51024" lon="1.62859">
        <ele>174.978</ele>
        <time>2017-07-02T08:49:12.777Z</time>
      </trkpt>
      <trkpt lat="43.51027" lon="1.62846">
        <ele>175.426</ele>
        <time>2017-07-02T08:49:21.555Z</time>
      </trkpt>
      <trkpt lat="43.51031" lon="1.62834">
        <ele>175.633</ele>
        <time>2017-07-02T08:49:29.570Z</time>
      </trkpt>
      <trkpt lat="43.51033" lon="1.62821">
        <ele>175.703</ele>
        <time>2017-07-02T08:49:37.538Z</time>
      </trkpt>
      <trkpt lat="43.51037" lon="1.6281">
        <ele>175.846</ele>
        <time>2017-07-02T08:49:45.355Z</time>
      </trkpt>
      <trkpt lat="43.51041" lon="1.62798">
        <ele>176.139</ele>
        <time>2017-07-02T08:49:53.678Z</time>
      </trkpt>
      <trkpt lat="43.51048" lon="1.62786">
        <ele>176.414</ele>
        <time>2017-07-02T08:50:02.570Z</time>
      </trkpt>
      <trkpt lat="43.51054" lon="1.62777">
        <ele>176.66</ele>
        <time>2017-07-02T08:50:10.373Z</time>
      </trkpt>
      <trkpt lat="43.51061" lon="1.62769">
        <ele>177.03</ele>
        <time>2017-07-02T08:50:18.282Z</time>
      </trkpt>
      <trkpt lat="43.51066" lon="1.62758">
        <ele>177.488</ele>
        <time>2017-07-02T08:50:26.123Z</time>
      </trkpt>
      <trkpt lat="43.51073" lon="1.62749">
        <ele>177.923</ele>
        <time>2017-07-02T08:50:34.615Z</time>
      </trkpt>
      <trkpt lat="43.51076" lon="1.62736">
        <ele>178.364</ele>
        <time>2017-07-02T08:50:42.820Z</time>
      </trkpt>
      <trkpt lat="43.51082" lon="1.62726">
        <ele>178.813</ele>
        <time>2017-07-02T08:50:50.634Z</time>
      </trkpt>
      <trkpt lat="43.51087" lon="1.62715">
        <ele>179.167</ele>
        <time>2017-07-02T08:50:58.576Z</time>
      </trkpt>
      <trkpt lat="43.51089" lon="1.62703">
        <ele>179.453</ele>
        <time>2017-07-02T08:51:06.164Z</time>
      </trkpt>
      <trkpt lat="43.51094" lon="1.62691">
        <ele>179.794</ele>
        <time>2017-07-02T08:51:14.094Z</time>
      </trkpt>
      <trkpt lat="43.51095" lon="1.62677">
        <ele>180.197</ele>
        <time>2017-07-02T08:51:22.674Z</time>
      </trkpt>
      <trkpt lat="43.511" lon="1.62665">
        <ele>180.618</ele>
        <time>2017-07-02T08:51:31.280Z</time>
      </trkpt>
      <trkpt lat="43.51106" lon="1.62655">
        <ele>180.989</ele>
        <time>2017-07-02T08:51:39.309Z</time>
      </trkpt>
      <trkpt lat="43.51112" lon="1.62643">
        <ele>181.261</ele>
        <time>2017-07-02T08:51:47.357Z</time>
      </trkpt>
      <trkpt lat="43.51116" lon="1.62632">
        <ele>181.498</ele>
        <time>2017-07-02T08:51:54.965Z</time>
      </trkpt>
      <trkpt lat="43.51121" lon="1.6262">
        <ele>181.709</ele>
        <time>2017-07-02T08:52:03.382Z</time>
      </trkpt>
      <trkpt lat="43.51124" lon="1.62608">
        <ele>181.817</ele>
        <time>2017-07-02T08:52:10.883Z</time>
      </trkpt>
      <trkpt lat="43.51129" lon="1.62597">
        <ele>181.789</ele>
        <time>2017-07-02T08:52:18.477Z</time>
      </trkpt>
      <trkpt lat="43.51134" lon="1.62585">
        <ele>181.624</ele>
        <time>2017-07-02T08:52:26.801Z</time>
      </trkpt>
      <trkpt lat="43.5114" lon="1.62575">
        <ele>181.378</ele>
        <time>2017-07-02T08:52:34.067Z</time>
      </trkpt>
      <trkpt lat="43.51148" lon="1.62565">
        <ele>181.137</ele>
        <time>2017-07-02T08:52:42.829Z</time>
      </trkpt>
      <trkpt lat="43.51152" lon="1.62552">
        <ele>180.923</ele>
        <time>2017-07-02T08:52:51.530Z</time>
      </trkpt>
      <trkpt lat="43.51153" lon="1.62539">
        <ele>180.737</ele>
        <time>2017-07-02T08:52:58.984Z</time>
      </trkpt>
      <trkpt lat="43.51155" lon="1.62526">
        <ele>180.594</ele>
        <time>2017-07-02T08:53:07.093Z</time>
      </trkpt>
      <trkpt lat="43.51158" lon="1.62514">
        <ele>180.423</ele>
        <time>2017-07-02T08:53:14.549Z</time>
      </trkpt>
      <trkpt lat="43.51163" lon="1.62503">
        <ele>179.96</ele>
        <time>2017-07-02T08:53:22.451Z</time>
      </trkpt>
      <trkpt lat="43.51171" lon="1.62495">
        <ele>179.046</ele>
        <time>2017-07-02T08:53:30.943Z</time>
      </trkpt>
      <trkpt lat="43.51177" lon="1.62485">
        <ele>177.886</ele>
        <time>2017-07-02T08:53:38.623Z</time>
      </trkpt>
      <trkpt lat="43.51182" lon="1.62474">
        <ele>176.888</ele>
        <time>2017-07-02T08:53:46.503Z</time>
      </trkpt>
      <trkpt lat="43.51188" lon="1.62463">
        <ele>176.335</ele>
        <time>2017-07-02T08:53:54.998Z</time>
      </trkpt>
      <trkpt lat="43.51188" lon="1.62463">
        <ele>176.168</ele>
        <time>2017-07-02T08:53:58.998Z</time>
      </trkpt>
      <trkpt lat="43.51188" lon="1.62463">
        <ele>176.113</ele>
        <time>2017-07-02T08:54:08.416Z</time>
      </trkpt>
      <trkpt lat="43.51188" lon="1.62463">
        <ele>175.981</ele>
        <time>2017-07-02T08:54:19.998Z</time>
      </trkpt>
      <trkpt lat="43.51188" lon="1.62463">
        <ele>175.981</ele>
        <time>2017-07-02T08:54:19.998Z</time>
      </trkpt>
      <trkpt lat="43.51187" lon="1.62441">
        <ele>175.882</ele>
        <time>2017-07-02T08:54:45.962Z</time>
      </trkpt>
      <trkpt lat="43.51194" lon="1.62432">
        <ele>175.324</ele>
        <time>2017-07-02T08:55:00.451Z</time>
      </trkpt>
      <trkpt lat="43.51198" lon="1.62419">
        <ele>173.975</ele>
        <time>2017-07-02T08:55:16.823Z</time>
      </trkpt>
      <trkpt lat="43.51205" lon="1.62408">
        <ele>172.59</ele>
        <time>2017-07-02T08:55:33.324Z</time>
      </trkpt>
      <trkpt lat="43.51211" lon="1.62398">
        <ele>171.914</ele>
        <time>2017-07-02T08:55:47.184Z</time>
      </trkpt>
      <trkpt lat="43.51217" lon="1.62389">
        <ele>171.843</ele>
        <time>2017-07-02T08:55:55.727Z</time>
      </trkpt>
      <trkpt lat="43.51221" lon="1.62377">
        <ele>172.141</ele>
        <time>2017-07-02T08:56:05.839Z</time>
      </trkpt>
      <trkpt lat="43.51226" lon="1.62366">
        <ele>172.625</ele>
        <time>2017-07-02T08:56:16.069Z</time>
      </trkpt>
      <trkpt lat="43.51231" lon="1.62355">
        <ele>173.118</ele>
        <time>2017-07-02T08:56:25.511Z</time>
      </trkpt>
      <trkpt lat="43.51237" lon="1.62345">
        <ele>173.496</ele>
        <time>2017-07-02T08:56:34.579Z</time>
      </trkpt>
      <trkpt lat="43.51242" lon="1.62334">
        <ele>173.809</ele>
        <time>2017-07-02T08:56:42.793Z</time>
      </trkpt>
      <trkpt lat="43.51245" lon="1.62321">
        <ele>174.183</ele>
        <time>2017-07-02T08:56:51.139Z</time>
      </trkpt>
      <trkpt lat="43.51247" lon="1.62309">
        <ele>174.627</ele>
        <time>2017-07-02T08:56:59.136Z</time>
      </trkpt>
      <trkpt lat="43.51251" lon="1.62296">
        <ele>175.088</ele>
        <time>2017-07-02T08:57:07.386Z</time>
      </trkpt>
      <trkpt lat="43.51257" lon="1.62287">
        <ele>175.572</ele>
        <time>2017-07-02T08:57:14.941Z</time>
      </trkpt>
      <trkpt lat="43.51263" lon="1.62277">
        <ele>176.01</ele>
        <time>2017-07-02T08:57:22.660Z</time>
      </trkpt>
      <trkpt lat="43.5127" lon="1.62267">
        <ele>176.331</ele>
        <time>2017-07-02T08:57:30.529Z</time>
      </trkpt>
      <trkpt lat="43.51273" lon="1.62255">
        <ele>176.612</ele>
        <time>2017-07-02T08:57:38.215Z</time>
      </trkpt>
      <trkpt lat="43.5128" lon="1.62245">
        <ele>176.965</ele>
        <time>2017-07-02T08:57:46.275Z</time>
      </trkpt>
      <trkpt lat="43.51283" lon="1.62232">
        <ele>177.418</ele>
        <time>2017-07-02T08:57:54.626Z</time>
      </trkpt>
      <trkpt lat="43.5129" lon="1.62221">
        <ele>177.885</ele>
        <time>2017-07-02T08:58:02.547Z</time>
      </trkpt>
      <trkpt lat="43.51295" lon="1.62209">
        <ele>178.24</ele>
        <time>2017-07-02T08:58:10.922Z</time>
      </trkpt>
      <trkpt lat="43.51301" lon="1.62198">
        <ele>178.461</ele>
        <time>2017-07-02T08:58:18.765Z</time>
      </trkpt>
      <trkpt lat="43.51305" lon="1.62186">
        <ele>178.612</ele>
        <time>2017-07-02T08:58:26.223Z</time>
      </trkpt>
      <trkpt lat="43.51313" lon="1.62177">
        <ele>178.742</ele>
        <time>2017-07-02T08:58:34.139Z</time>
      </trkpt>
      <trkpt lat="43.5132" lon="1.62167">
        <ele>178.851</ele>
        <time>2017-07-02T08:58:42.302Z</time>
      </trkpt>
      <trkpt lat="43.51326" lon="1.62158">
        <ele>178.92</ele>
        <time>2017-07-02T08:58:49.623Z</time>
      </trkpt>
      <trkpt lat="43.51334" lon="1.6215">
        <ele>178.955</ele>
        <time>2017-07-02T08:58:57.339Z</time>
      </trkpt>
      <trkpt lat="43.51339" lon="1.62139">
        <ele>178.984</ele>
        <time>2017-07-02T08:59:04.706Z</time>
      </trkpt>
      <trkpt lat="43.51343" lon="1.62128">
        <ele>179.003</ele>
        <time>2017-07-02T08:59:12.273Z</time>
      </trkpt>
      <trkpt lat="43.51346" lon="1.62116">
        <ele>178.99</ele>
        <time>2017-07-02T08:59:19.519Z</time>
      </trkpt>
      <trkpt lat="43.5135" lon="1.62104">
        <ele>178.913</ele>
        <time>2017-07-02T08:59:27.385Z</time>
      </trkpt>
      <trkpt lat="43.51353" lon="1.62091">
        <ele>178.757</ele>
        <time>2017-07-02T08:59:35.094Z</time>
      </trkpt>
      <trkpt lat="43.51356" lon="1.62079">
        <ele>178.504</ele>
        <time>2017-07-02T08:59:42.735Z</time>
      </trkpt>
      <trkpt lat="43.51361" lon="1.62069">
        <ele>178.146</ele>
        <time>2017-07-02T08:59:50.335Z</time>
      </trkpt>
      <trkpt lat="43.51366" lon="1.62056">
        <ele>177.692</ele>
        <time>2017-07-02T08:59:58.409Z</time>
      </trkpt>
      <trkpt lat="43.51371" lon="1.62046">
        <ele>177.212</ele>
        <time>2017-07-02T09:00:05.981Z</time>
      </trkpt>
      <trkpt lat="43.51372" lon="1.62032">
        <ele>176.84</ele>
        <time>2017-07-02T09:00:13.854Z</time>
      </trkpt>
      <trkpt lat="43.51377" lon="1.62022">
        <ele>176.591</ele>
        <time>2017-07-02T09:00:21.427Z</time>
      </trkpt>
      <trkpt lat="43.51382" lon="1.62011">
        <ele>176.37</ele>
        <time>2017-07-02T09:00:28.700Z</time>
      </trkpt>
      <trkpt lat="43.51388" lon="1.62001">
        <ele>176.217</ele>
        <time>2017-07-02T09:00:36.658Z</time>
      </trkpt>
      <trkpt lat="43.51391" lon="1.61988">
        <ele>176.196</ele>
        <time>2017-07-02T09:00:44.231Z</time>
      </trkpt>
      <trkpt lat="43.51394" lon="1.61976">
        <ele>176.259</ele>
        <time>2017-07-02T09:00:51.757Z</time>
      </trkpt>
      <trkpt lat="43.514" lon="1.61964">
        <ele>176.305</ele>
        <time>2017-07-02T09:00:59.528Z</time>
      </trkpt>
      <trkpt lat="43.51405" lon="1.61954">
        <ele>176.158</ele>
        <time>2017-07-02T09:01:07.095Z</time>
      </trkpt>
      <trkpt lat="43.5141" lon="1.61943">
        <ele>175.755</ele>
        <time>2017-07-02T09:01:14.886Z</time>
      </trkpt>
      <trkpt lat="43.51415" lon="1.61932">
        <ele>175.279</ele>
        <time>2017-07-02T09:01:22.778Z</time>
      </trkpt>
      <trkpt lat="43.5142" lon="1.61922">
        <ele>174.885</ele>
        <time>2017-07-02T09:01:30.224Z</time>
      </trkpt>
      <trkpt lat="43.51422" lon="1.61909">
        <ele>174.491</ele>
        <time>2017-07-02T09:01:37.661Z</time>
      </trkpt>
      <trkpt lat="43.51425" lon="1.61897">
        <ele>174.011</ele>
        <time>2017-07-02T09:01:45.467Z</time>
      </trkpt>
      <trkpt lat="43.51428" lon="1.61885">
        <ele>173.566</ele>
        <time>2017-07-02T09:01:53.274Z</time>
      </trkpt>
      <trkpt lat="43.51432" lon="1.61872">
        <ele>173.236</ele>
        <time>2017-07-02T09:02:01.523Z</time>
      </trkpt>
      <trkpt lat="43.51437" lon="1.6186">
        <ele>172.973</ele>
        <time>2017-07-02T09:02:09.584Z</time>
      </trkpt>
      <trkpt lat="43.51438" lon="1.61848">
        <ele>172.837</ele>
        <time>2017-07-02T09:02:17.250Z</time>
      </trkpt>
      <trkpt lat="43.51443" lon="1.61836">
        <ele>172.9</ele>
        <time>2017-07-02T09:02:25.487Z</time>
      </trkpt>
      <trkpt lat="43.51447" lon="1.61823">
        <ele>173.104</ele>
        <time>2017-07-02T09:02:33.614Z</time>
      </trkpt>
      <trkpt lat="43.51452" lon="1.61811">
        <ele>173.376</ele>
        <time>2017-07-02T09:02:42.032Z</time>
      </trkpt>
      <trkpt lat="43.51455" lon="1.61799">
        <ele>173.644</ele>
        <time>2017-07-02T09:02:49.913Z</time>
      </trkpt>
      <trkpt lat="43.51456" lon="1.61785">
        <ele>173.941</ele>
        <time>2017-07-02T09:02:57.913Z</time>
      </trkpt>
      <trkpt lat="43.51458" lon="1.61772">
        <ele>174.354</ele>
        <time>2017-07-02T09:03:05.442Z</time>
      </trkpt>
      <trkpt lat="43.51462" lon="1.6176">
        <ele>174.774</ele>
        <time>2017-07-02T09:03:13.069Z</time>
      </trkpt>
      <trkpt lat="43.51468" lon="1.61749">
        <ele>175.053</ele>
        <time>2017-07-02T09:03:21.069Z</time>
      </trkpt>
      <trkpt lat="43.51473" lon="1.61737">
        <ele>175.253</ele>
        <time>2017-07-02T09:03:29.625Z</time>
      </trkpt>
      <trkpt lat="43.51477" lon="1.61725">
        <ele>175.457</ele>
        <time>2017-07-02T09:03:37.286Z</time>
      </trkpt>
      <trkpt lat="43.51481" lon="1.61713">
        <ele>175.674</ele>
        <time>2017-07-02T09:03:44.653Z</time>
      </trkpt>
      <trkpt lat="43.51485" lon="1.61701">
        <ele>175.901</ele>
        <time>2017-07-02T09:03:52.076Z</time>
      </trkpt>
      <trkpt lat="43.5149" lon="1.6169">
        <ele>176.166</ele>
        <time>2017-07-02T09:03:59.340Z</time>
      </trkpt>
      <trkpt lat="43.51495" lon="1.61679">
        <ele>176.455</ele>
        <time>2017-07-02T09:04:07.101Z</time>
      </trkpt>
      <trkpt lat="43.51501" lon="1.61669">
        <ele>176.696</ele>
        <time>2017-07-02T09:04:14.731Z</time>
      </trkpt>
      <trkpt lat="43.51507" lon="1.61657">
        <ele>176.956</ele>
        <time>2017-07-02T09:04:22.499Z</time>
      </trkpt>
      <trkpt lat="43.5151" lon="1.61645">
        <ele>177.315</ele>
        <time>2017-07-02T09:04:29.811Z</time>
      </trkpt>
      <trkpt lat="43.51516" lon="1.61635">
        <ele>177.636</ele>
        <time>2017-07-02T09:04:37.323Z</time>
      </trkpt>
      <trkpt lat="43.51521" lon="1.61624">
        <ele>177.82</ele>
        <time>2017-07-02T09:04:44.948Z</time>
      </trkpt>
      <trkpt lat="43.51526" lon="1.61613">
        <ele>177.94</ele>
        <time>2017-07-02T09:04:52.800Z</time>
      </trkpt>
      <trkpt lat="43.51532" lon="1.61602">
        <ele>178.031</ele>
        <time>2017-07-02T09:05:00.333Z</time>
      </trkpt>
      <trkpt lat="43.51538" lon="1.61592">
        <ele>178.081</ele>
        <time>2017-07-02T09:05:07.951Z</time>
      </trkpt>
      <trkpt lat="43.51545" lon="1.61583">
        <ele>178.106</ele>
        <time>2017-07-02T09:05:15.406Z</time>
      </trkpt>
      <trkpt lat="43.51552" lon="1.61573">
        <ele>178.164</ele>
        <time>2017-07-02T09:05:23.227Z</time>
      </trkpt>
      <trkpt lat="43.51558" lon="1.61562">
        <ele>178.286</ele>
        <time>2017-07-02T09:05:31.237Z</time>
      </trkpt>
      <trkpt lat="43.51565" lon="1.61552">
        <ele>178.473</ele>
        <time>2017-07-02T09:05:38.770Z</time>
      </trkpt>
      <trkpt lat="43.51573" lon="1.61545">
        <ele>178.725</ele>
        <time>2017-07-02T09:05:46.204Z</time>
      </trkpt>
      <trkpt lat="43.5158" lon="1.61535">
        <ele>179.011</ele>
        <time>2017-07-02T09:05:54.023Z</time>
      </trkpt>
      <trkpt lat="43.51587" lon="1.61524">
        <ele>179.252</ele>
        <time>2017-07-02T09:06:01.787Z</time>
      </trkpt>
      <trkpt lat="43.51594" lon="1.61514">
        <ele>179.403</ele>
        <time>2017-07-02T09:06:09.552Z</time>
      </trkpt>
      <trkpt lat="43.51601" lon="1.61507">
        <ele>179.519</ele>
        <time>2017-07-02T09:06:16.560Z</time>
      </trkpt>
      <trkpt lat="43.5161" lon="1.61499">
        <ele>179.692</ele>
        <time>2017-07-02T09:06:24.231Z</time>
      </trkpt>
      <trkpt lat="43.51616" lon="1.61489">
        <ele>179.931</ele>
        <time>2017-07-02T09:06:31.689Z</time>
      </trkpt>
      <trkpt lat="43.51622" lon="1.61479">
        <ele>180.135</ele>
        <time>2017-07-02T09:06:38.742Z</time>
      </trkpt>
      <trkpt lat="43.51629" lon="1.6147">
        <ele>180.215</ele>
        <time>2017-07-02T09:06:46.032Z</time>
      </trkpt>
      <trkpt lat="43.51635" lon="1.61459">
        <ele>180.2</ele>
        <time>2017-07-02T09:06:53.592Z</time>
      </trkpt>
      <trkpt lat="43.51641" lon="1.61448">
        <ele>180.189</ele>
        <time>2017-07-02T09:07:00.781Z</time>
      </trkpt>
      <trkpt lat="43.51646" lon="1.61437">
        <ele>180.227</ele>
        <time>2017-07-02T09:07:08.123Z</time>
      </trkpt>
      <trkpt lat="43.51651" lon="1.61427">
        <ele>180.257</ele>
        <time>2017-07-02T09:07:15.395Z</time>
      </trkpt>
      <trkpt lat="43.51658" lon="1.61417">
        <ele>180.222</ele>
        <time>2017-07-02T09:07:22.820Z</time>
      </trkpt>
      <trkpt lat="43.51664" lon="1.61408">
        <ele>180.104</ele>
        <time>2017-07-02T09:07:30.190Z</time>
      </trkpt>
      <trkpt lat="43.51671" lon="1.61396">
        <ele>179.916</ele>
        <time>2017-07-02T09:07:38.766Z</time>
      </trkpt>
      <trkpt lat="43.51678" lon="1.61387">
        <ele>179.745</ele>
        <time>2017-07-02T09:07:46.747Z</time>
      </trkpt>
      <trkpt lat="43.51684" lon="1.61376">
        <ele>179.688</ele>
        <time>2017-07-02T09:07:54.798Z</time>
      </trkpt>
      <trkpt lat="43.51691" lon="1.61366">
        <ele>179.74</ele>
        <time>2017-07-02T09:08:02.731Z</time>
      </trkpt>
      <trkpt lat="43.51699" lon="1.61357">
        <ele>179.837</ele>
        <time>2017-07-02T09:08:10.375Z</time>
      </trkpt>
      <trkpt lat="43.51704" lon="1.61345">
        <ele>179.915</ele>
        <time>2017-07-02T09:08:17.615Z</time>
      </trkpt>
      <trkpt lat="43.51708" lon="1.61333">
        <ele>179.984</ele>
        <time>2017-07-02T09:08:24.874Z</time>
      </trkpt>
      <trkpt lat="43.51714" lon="1.61322">
        <ele>180.079</ele>
        <time>2017-07-02T09:08:32.161Z</time>
      </trkpt>
      <trkpt lat="43.51719" lon="1.61311">
        <ele>180.174</ele>
        <time>2017-07-02T09:08:39.177Z</time>
      </trkpt>
      <trkpt lat="43.51726" lon="1.61302">
        <ele>180.228</ele>
        <time>2017-07-02T09:08:46.178Z</time>
      </trkpt>
      <trkpt lat="43.51731" lon="1.61291">
        <ele>180.148</ele>
        <time>2017-07-02T09:08:53.588Z</time>
      </trkpt>
      <trkpt lat="43.51736" lon="1.61279">
        <ele>179.873</ele>
        <time>2017-07-02T09:09:00.841Z</time>
      </trkpt>
      <trkpt lat="43.51741" lon="1.61269">
        <ele>179.476</ele>
        <time>2017-07-02T09:09:07.798Z</time>
      </trkpt>
      <trkpt lat="43.51747" lon="1.61257">
        <ele>179.071</ele>
        <time>2017-07-02T09:09:15.980Z</time>
      </trkpt>
      <trkpt lat="43.51753" lon="1.61245">
        <ele>178.774</ele>
        <time>2017-07-02T09:09:24.845Z</time>
      </trkpt>
      <trkpt lat="43.51757" lon="1.61234">
        <ele>178.658</ele>
        <time>2017-07-02T09:09:32.404Z</time>
      </trkpt>
      <trkpt lat="43.51762" lon="1.61222">
        <ele>178.667</ele>
        <time>2017-07-02T09:09:39.669Z</time>
      </trkpt>
      <trkpt lat="43.51768" lon="1.61211">
        <ele>178.696</ele>
        <time>2017-07-02T09:09:47.609Z</time>
      </trkpt>
      <trkpt lat="43.51773" lon="1.61198">
        <ele>178.643</ele>
        <time>2017-07-02T09:09:55.877Z</time>
      </trkpt>
      <trkpt lat="43.51778" lon="1.61189">
        <ele>178.479</ele>
        <time>2017-07-02T09:10:03.004Z</time>
      </trkpt>
      <trkpt lat="43.51783" lon="1.61176">
        <ele>178.258</ele>
        <time>2017-07-02T09:10:10.523Z</time>
      </trkpt>
      <trkpt lat="43.51786" lon="1.61164">
        <ele>178.001</ele>
        <time>2017-07-02T09:10:17.791Z</time>
      </trkpt>
      <trkpt lat="43.51792" lon="1.61154">
        <ele>177.666</ele>
        <time>2017-07-02T09:10:24.965Z</time>
      </trkpt>
      <trkpt lat="43.51798" lon="1.61144">
        <ele>177.209</ele>
        <time>2017-07-02T09:10:32.100Z</time>
      </trkpt>
      <trkpt lat="43.51803" lon="1.61133">
        <ele>176.667</ele>
        <time>2017-07-02T09:10:39.431Z</time>
      </trkpt>
      <trkpt lat="43.51808" lon="1.61123">
        <ele>176.208</ele>
        <time>2017-07-02T09:10:46.768Z</time>
      </trkpt>
      <trkpt lat="43.51814" lon="1.61113">
        <ele>175.939</ele>
        <time>2017-07-02T09:10:54.509Z</time>
      </trkpt>
      <trkpt lat="43.5182" lon="1.61103">
        <ele>175.783</ele>
        <time>2017-07-02T09:11:02.181Z</time>
      </trkpt>
      <trkpt lat="43.51827" lon="1.61094">
        <ele>175.65</ele>
        <time>2017-07-02T09:11:10.123Z</time>
      </trkpt>
      <trkpt lat="43.51833" lon="1.61084">
        <ele>175.499</ele>
        <time>2017-07-02T09:11:18.435Z</time>
      </trkpt>
      <trkpt lat="43.5184" lon="1.61074">
        <ele>175.341</ele>
        <time>2017-07-02T09:11:26.760Z</time>
      </trkpt>
      <trkpt lat="43.51848" lon="1.61067">
        <ele>175.228</ele>
        <time>2017-07-02T09:11:34.639Z</time>
      </trkpt>
      <trkpt lat="43.51856" lon="1.61057">
        <ele>175.109</ele>
        <time>2017-07-02T09:11:43.708Z</time>
      </trkpt>
      <trkpt lat="43.51863" lon="1.61048">
        <ele>174.853</ele>
        <time>2017-07-02T09:11:51.838Z</time>
      </trkpt>
      <trkpt lat="43.51869" lon="1.61038">
        <ele>174.461</ele>
        <time>2017-07-02T09:11:59.897Z</time>
      </trkpt>
      <trkpt lat="43.51877" lon="1.61029">
        <ele>174.082</ele>
        <time>2017-07-02T09:12:08.152Z</time>
      </trkpt>
      <trkpt lat="43.51882" lon="1.61019">
        <ele>173.786</ele>
        <time>2017-07-02T09:12:15.619Z</time>
      </trkpt>
      <trkpt lat="43.51889" lon="1.61009">
        <ele>173.501</ele>
        <time>2017-07-02T09:12:23.435Z</time>
      </trkpt>
      <trkpt lat="43.51896" lon="1.61">
        <ele>173.213</ele>
        <time>2017-07-02T09:12:31.170Z</time>
      </trkpt>
      <trkpt lat="43.51904" lon="1.60992">
        <ele>173.023</ele>
        <time>2017-07-02T09:12:38.537Z</time>
      </trkpt>
      <trkpt lat="43.5191" lon="1.60981">
        <ele>173.017</ele>
        <time>2017-07-02T09:12:46.283Z</time>
      </trkpt>
      <trkpt lat="43.51915" lon="1.60969">
        <ele>173.284</ele>
        <time>2017-07-02T09:12:54.044Z</time>
      </trkpt>
      <trkpt lat="43.51922" lon="1.60959">
        <ele>173.767</ele>
        <time>2017-07-02T09:13:01.819Z</time>
      </trkpt>
      <trkpt lat="43.51929" lon="1.6095">
        <ele>174.216</ele>
        <time>2017-07-02T09:13:09.870Z</time>
      </trkpt>
      <trkpt lat="43.51935" lon="1.60939">
        <ele>174.478</ele>
        <time>2017-07-02T09:13:17.501Z</time>
      </trkpt>
      <trkpt lat="43.51942" lon="1.60928">
        <ele>174.574</ele>
        <time>2017-07-02T09:13:25.830Z</time>
      </trkpt>
      <trkpt lat="43.51947" lon="1.60918">
        <ele>174.572</ele>
        <time>2017-07-02T09:13:32.995Z</time>
      </trkpt>
      <trkpt lat="43.51952" lon="1.60906">
        <ele>174.537</ele>
        <time>2017-07-02T09:13:40.789Z</time>
      </trkpt>
      <trkpt lat="43.51959" lon="1.60898">
        <ele>174.482</ele>
        <time>2017-07-02T09:13:48.043Z</time>
      </trkpt>
      <trkpt lat="43.51966" lon="1.60889">
        <ele>174.388</ele>
        <time>2017-07-02T09:13:55.368Z</time>
      </trkpt>
      <trkpt lat="43.51972" lon="1.60878">
        <ele>174.271</ele>
        <time>2017-07-02T09:14:03.127Z</time>
      </trkpt>
      <trkpt lat="43.51977" lon="1.60867">
        <ele>174.191</ele>
        <time>2017-07-02T09:14:10.478Z</time>
      </trkpt>
      <trkpt lat="43.51983" lon="1.60855">
        <ele>174.189</ele>
        <time>2017-07-02T09:14:18.183Z</time>
      </trkpt>
      <trkpt lat="43.51987" lon="1.60843">
        <ele>174.243</ele>
        <time>2017-07-02T09:14:26.091Z</time>
      </trkpt>
      <trkpt lat="43.51987" lon="1.60843">
        <ele>174.263</ele>
        <time>2017-07-02T09:14:33.079Z</time>
      </trkpt>
      <trkpt lat="43.51987" lon="1.60843">
        <ele>174.263</ele>
        <time>2017-07-02T09:14:33.079Z</time>
      </trkpt>
      <trkpt lat="43.51991" lon="1.60818">
        <ele>174.094</ele>
        <time>2017-07-02T09:16:05.955Z</time>
      </trkpt>
      <trkpt lat="43.51996" lon="1.60806">
        <ele>173.945</ele>
        <time>2017-07-02T09:16:56.471Z</time>
      </trkpt>
      <trkpt lat="43.52004" lon="1.60797">
        <ele>173.673</ele>
        <time>2017-07-02T09:17:46.987Z</time>
      </trkpt>
      <trkpt lat="43.52012" lon="1.6079">
        <ele>173.398</ele>
        <time>2017-07-02T09:18:33.833Z</time>
      </trkpt>
      <trkpt lat="43.5202" lon="1.60786">
        <ele>173.279</ele>
        <time>2017-07-02T09:19:15.083Z</time>
      </trkpt>
      <trkpt lat="43.52028" lon="1.60778">
        <ele>173.302</ele>
        <time>2017-07-02T09:19:36.544Z</time>
      </trkpt>
      <trkpt lat="43.52037" lon="1.60771">
        <ele>173.37</ele>
        <time>2017-07-02T09:19:57.102Z</time>
      </trkpt>
      <trkpt lat="43.52037" lon="1.60771">
        <ele>173.377</ele>
        <time>2017-07-02T09:20:03.104Z</time>
      </trkpt>
      <trkpt lat="43.52037" lon="1.60771">
        <ele>173.377</ele>
        <time>2017-07-02T09:20:03.104Z</time>
      </trkpt>
      <trkpt lat="43.52046" lon="1.60762">
        <ele>173.211</ele>
        <time>2017-07-02T09:20:16.166Z</time>
      </trkpt>
      <trkpt lat="43.52055" lon="1.60755">
        <ele>173.178</ele>
        <time>2017-07-02T09:20:23.727Z</time>
      </trkpt>
      <trkpt lat="43.52062" lon="1.60747">
        <ele>173.2</ele>
        <time>2017-07-02T09:20:31.143Z</time>
      </trkpt>
      <trkpt lat="43.5207" lon="1.60739">
        <ele>173.236</ele>
        <time>2017-07-02T09:20:38.649Z</time>
      </trkpt>
      <trkpt lat="43.52078" lon="1.6073">
        <ele>173.178</ele>
        <time>2017-07-02T09:20:46.198Z</time>
      </trkpt>
      <trkpt lat="43.52087" lon="1.60724">
        <ele>172.981</ele>
        <time>2017-07-02T09:20:54.156Z</time>
      </trkpt>
      <trkpt lat="43.52095" lon="1.60715">
        <ele>172.704</ele>
        <time>2017-07-02T09:21:02.454Z</time>
      </trkpt>
      <trkpt lat="43.52102" lon="1.60707">
        <ele>172.428</ele>
        <time>2017-07-02T09:21:09.678Z</time>
      </trkpt>
      <trkpt lat="43.52109" lon="1.60699">
        <ele>172.204</ele>
        <time>2017-07-02T09:21:17.275Z</time>
      </trkpt>
      <trkpt lat="43.52117" lon="1.6069">
        <ele>172.062</ele>
        <time>2017-07-02T09:21:25.682Z</time>
      </trkpt>
      <trkpt lat="43.52125" lon="1.6068">
        <ele>172.032</ele>
        <time>2017-07-02T09:21:33.452Z</time>
      </trkpt>
      <trkpt lat="43.52132" lon="1.60671">
        <ele>172.138</ele>
        <time>2017-07-02T09:21:40.934Z</time>
      </trkpt>
      <trkpt lat="43.52139" lon="1.60664">
        <ele>172.354</ele>
        <time>2017-07-02T09:21:47.615Z</time>
      </trkpt>
      <trkpt lat="43.52146" lon="1.60656">
        <ele>172.628</ele>
        <time>2017-07-02T09:21:54.140Z</time>
      </trkpt>
      <trkpt lat="43.52151" lon="1.60645">
        <ele>172.964</ele>
        <time>2017-07-02T09:22:00.953Z</time>
      </trkpt>
      <trkpt lat="43.52153" lon="1.60631">
        <ele>173.423</ele>
        <time>2017-07-02T09:22:08.255Z</time>
      </trkpt>
      <trkpt lat="43.5216" lon="1.60621">
        <ele>174.009</ele>
        <time>2017-07-02T09:22:15.346Z</time>
      </trkpt>
      <trkpt lat="43.52165" lon="1.60611">
        <ele>174.588</ele>
        <time>2017-07-02T09:22:22.526Z</time>
      </trkpt>
      <trkpt lat="43.52169" lon="1.60598">
        <ele>175.04</ele>
        <time>2017-07-02T09:22:30.430Z</time>
      </trkpt>
      <trkpt lat="43.52177" lon="1.60589">
        <ele>175.34</ele>
        <time>2017-07-02T09:22:38.561Z</time>
      </trkpt>
      <trkpt lat="43.52181" lon="1.60576">
        <ele>175.515</ele>
        <time>2017-07-02T09:22:46.385Z</time>
      </trkpt>
      <trkpt lat="43.52184" lon="1.60563">
        <ele>175.643</ele>
        <time>2017-07-02T09:22:54.538Z</time>
      </trkpt>
      <trkpt lat="43.52189" lon="1.60551">
        <ele>175.797</ele>
        <time>2017-07-02T09:23:02.753Z</time>
      </trkpt>
      <trkpt lat="43.52196" lon="1.60541">
        <ele>175.852</ele>
        <time>2017-07-02T09:23:11.085Z</time>
      </trkpt>
      <trkpt lat="43.52196" lon="1.60541">
        <ele>175.708</ele>
        <time>2017-07-02T09:23:13.104Z</time>
      </trkpt>
      <trkpt lat="43.52196" lon="1.60541">
        <ele>175.708</ele>
        <time>2017-07-02T09:23:13.104Z</time>
      </trkpt>
      <trkpt lat="43.52202" lon="1.60531">
        <ele>175.457</ele>
        <time>2017-07-02T09:23:42.069Z</time>
      </trkpt>
      <trkpt lat="43.52202" lon="1.60531">
        <ele>175.451</ele>
        <time>2017-07-02T09:23:43.068Z</time>
      </trkpt>
      <trkpt lat="43.52202" lon="1.60531">
        <ele>175.379</ele>
        <time>2017-07-02T09:24:23.089Z</time>
      </trkpt>
      <trkpt lat="43.52202" lon="1.60531">
        <ele>175.379</ele>
        <time>2017-07-02T09:24:23.089Z</time>
      </trkpt>
      <trkpt lat="43.52204" lon="1.60518">
        <ele>175.233</ele>
        <time>2017-07-02T09:24:34.947Z</time>
      </trkpt>
      <trkpt lat="43.52211" lon="1.60508">
        <ele>174.99</ele>
        <time>2017-07-02T09:24:42.806Z</time>
      </trkpt>
      <trkpt lat="43.52215" lon="1.60497">
        <ele>174.395</ele>
        <time>2017-07-02T09:24:50.181Z</time>
      </trkpt>
      <trkpt lat="43.5222" lon="1.60486">
        <ele>173.746</ele>
        <time>2017-07-02T09:24:57.558Z</time>
      </trkpt>
      <trkpt lat="43.52224" lon="1.60474">
        <ele>173.422</ele>
        <time>2017-07-02T09:25:05.010Z</time>
      </trkpt>
      <trkpt lat="43.52229" lon="1.60462">
        <ele>173.417</ele>
        <time>2017-07-02T09:25:12.914Z</time>
      </trkpt>
      <trkpt lat="43.52238" lon="1.60455">
        <ele>173.566</ele>
        <time>2017-07-02T09:25:20.828Z</time>
      </trkpt>
      <trkpt lat="43.52244" lon="1.60445">
        <ele>173.772</ele>
        <time>2017-07-02T09:25:28.279Z</time>
      </trkpt>
      <trkpt lat="43.52252" lon="1.60438">
        <ele>174.015</ele>
        <time>2017-07-02T09:25:35.441Z</time>
      </trkpt>
      <trkpt lat="43.52258" lon="1.60428">
        <ele>174.243</ele>
        <time>2017-07-02T09:25:43.035Z</time>
      </trkpt>
      <trkpt lat="43.52266" lon="1.6042">
        <ele>174.362</ele>
        <time>2017-07-02T09:25:50.610Z</time>
      </trkpt>
      <trkpt lat="43.52273" lon="1.60412">
        <ele>174.334</ele>
        <time>2017-07-02T09:25:57.868Z</time>
      </trkpt>
      <trkpt lat="43.52282" lon="1.60406">
        <ele>174.212</ele>
        <time>2017-07-02T09:26:05.705Z</time>
      </trkpt>
      <trkpt lat="43.5229" lon="1.60397">
        <ele>174.03</ele>
        <time>2017-07-02T09:26:13.716Z</time>
      </trkpt>
      <trkpt lat="43.52299" lon="1.60391">
        <ele>173.833</ele>
        <time>2017-07-02T09:26:21.105Z</time>
      </trkpt>
      <trkpt lat="43.52307" lon="1.60383">
        <ele>173.644</ele>
        <time>2017-07-02T09:26:28.423Z</time>
      </trkpt>
      <trkpt lat="43.52315" lon="1.60375">
        <ele>173.44</ele>
        <time>2017-07-02T09:26:36.139Z</time>
      </trkpt>
      <trkpt lat="43.52322" lon="1.60366">
        <ele>173.211</ele>
        <time>2017-07-02T09:26:43.178Z</time>
      </trkpt>
      <trkpt lat="43.5233" lon="1.60359">
        <ele>172.974</ele>
        <time>2017-07-02T09:26:50.709Z</time>
      </trkpt>
      <trkpt lat="43.52338" lon="1.60352">
        <ele>172.749</ele>
        <time>2017-07-02T09:26:58.034Z</time>
      </trkpt>
      <trkpt lat="43.52345" lon="1.60344">
        <ele>172.552</ele>
        <time>2017-07-02T09:27:05.068Z</time>
      </trkpt>
      <trkpt lat="43.52351" lon="1.60335">
        <ele>172.391</ele>
        <time>2017-07-02T09:27:12.215Z</time>
      </trkpt>
      <trkpt lat="43.52358" lon="1.60326">
        <ele>172.265</ele>
        <time>2017-07-02T09:27:19.453Z</time>
      </trkpt>
      <trkpt lat="43.52366" lon="1.60318">
        <ele>172.147</ele>
        <time>2017-07-02T09:27:27.288Z</time>
      </trkpt>
      <trkpt lat="43.52373" lon="1.60309">
        <ele>171.988</ele>
        <time>2017-07-02T09:27:35.155Z</time>
      </trkpt>
      <trkpt lat="43.52382" lon="1.60302">
        <ele>171.739</ele>
        <time>2017-07-02T09:27:42.877Z</time>
      </trkpt>
      <trkpt lat="43.52389" lon="1.60293">
        <ele>171.404</ele>
        <time>2017-07-02T09:27:50.477Z</time>
      </trkpt>
      <trkpt lat="43.52397" lon="1.60284">
        <ele>171.073</ele>
        <time>2017-07-02T09:27:58.161Z</time>
      </trkpt>
      <trkpt lat="43.52405" lon="1.60275">
        <ele>170.857</ele>
        <time>2017-07-02T09:28:06.319Z</time>
      </trkpt>
      <trkpt lat="43.52412" lon="1.60267">
        <ele>170.79</ele>
        <time>2017-07-02T09:28:13.558Z</time>
      </trkpt>
      <trkpt lat="43.52419" lon="1.60258">
        <ele>170.81</ele>
        <time>2017-07-02T09:28:20.705Z</time>
      </trkpt>
      <trkpt lat="43.52425" lon="1.60249">
        <ele>170.913</ele>
        <time>2017-07-02T09:28:27.767Z</time>
      </trkpt>
      <trkpt lat="43.52432" lon="1.60239">
        <ele>171.14</ele>
        <time>2017-07-02T09:28:35.319Z</time>
      </trkpt>
      <trkpt lat="43.52439" lon="1.60229">
        <ele>171.407</ele>
        <time>2017-07-02T09:28:43.010Z</time>
      </trkpt>
      <trkpt lat="43.52446" lon="1.6022">
        <ele>171.51</ele>
        <time>2017-07-02T09:28:50.056Z</time>
      </trkpt>
      <trkpt lat="43.52454" lon="1.60213">
        <ele>171.388</ele>
        <time>2017-07-02T09:28:57.511Z</time>
      </trkpt>
      <trkpt lat="43.52462" lon="1.60205">
        <ele>171.221</ele>
        <time>2017-07-02T09:29:04.977Z</time>
      </trkpt>
      <trkpt lat="43.52469" lon="1.60196">
        <ele>171.193</ele>
        <time>2017-07-02T09:29:12.299Z</time>
      </trkpt>
      <trkpt lat="43.52475" lon="1.60186">
        <ele>171.324</ele>
        <time>2017-07-02T09:29:19.457Z</time>
      </trkpt>
      <trkpt lat="43.52483" lon="1.60177">
        <ele>171.628</ele>
        <time>2017-07-02T09:29:27.237Z</time>
      </trkpt>
      <trkpt lat="43.52489" lon="1.60168">
        <ele>172.056</ele>
        <time>2017-07-02T09:29:33.980Z</time>
      </trkpt>
      <trkpt lat="43.52496" lon="1.60159">
        <ele>172.415</ele>
        <time>2017-07-02T09:29:41.077Z</time>
      </trkpt>
      <trkpt lat="43.52503" lon="1.6015">
        <ele>172.587</ele>
        <time>2017-07-02T09:29:47.840Z</time>
      </trkpt>
      <trkpt lat="43.5251" lon="1.60141">
        <ele>172.629</ele>
        <time>2017-07-02T09:29:55.083Z</time>
      </trkpt>
      <trkpt lat="43.52516" lon="1.6013">
        <ele>172.62</ele>
        <time>2017-07-02T09:30:02.253Z</time>
      </trkpt>
      <trkpt lat="43.52523" lon="1.60121">
        <ele>172.54</ele>
        <time>2017-07-02T09:30:09.310Z</time>
      </trkpt>
      <trkpt lat="43.5253" lon="1.60112">
        <ele>172.339</ele>
        <time>2017-07-02T09:30:16.627Z</time>
      </trkpt>
      <trkpt lat="43.52534" lon="1.601">
        <ele>172.063</ele>
        <time>2017-07-02T09:30:23.831Z</time>
      </trkpt>
      <trkpt lat="43.52543" lon="1.60098">
        <ele>171.771</ele>
        <time>2017-07-02T09:30:30.567Z</time>
      </trkpt>
      <trkpt lat="43.5255" lon="1.60088">
        <ele>171.503</ele>
        <time>2017-07-02T09:30:37.469Z</time>
      </trkpt>
      <trkpt lat="43.52554" lon="1.60074">
        <ele>171.289</ele>
        <time>2017-07-02T09:30:45.688Z</time>
      </trkpt>
      <trkpt lat="43.52559" lon="1.60064">
        <ele>171.029</ele>
        <time>2017-07-02T09:30:52.754Z</time>
      </trkpt>
      <trkpt lat="43.52566" lon="1.60053">
        <ele>170.55</ele>
        <time>2017-07-02T09:31:00.561Z</time>
      </trkpt>
      <trkpt lat="43.52572" lon="1.60043">
        <ele>169.846</ele>
        <time>2017-07-02T09:31:07.894Z</time>
      </trkpt>
      <trkpt lat="43.5258" lon="1.60035">
        <ele>169.092</ele>
        <time>2017-07-02T09:31:15.002Z</time>
      </trkpt>
      <trkpt lat="43.52589" lon="1.60027">
        <ele>168.5</ele>
        <time>2017-07-02T09:31:22.910Z</time>
      </trkpt>
      <trkpt lat="43.52596" lon="1.60018">
        <ele>168.187</ele>
        <time>2017-07-02T09:31:30.174Z</time>
      </trkpt>
      <trkpt lat="43.52603" lon="1.60009">
        <ele>168.151</ele>
        <time>2017-07-02T09:31:37.588Z</time>
      </trkpt>
      <trkpt lat="43.52609" lon="1.59997">
        <ele>168.275</ele>
        <time>2017-07-02T09:31:45.516Z</time>
      </trkpt>
      <trkpt lat="43.52617" lon="1.59991">
        <ele>168.433</ele>
        <time>2017-07-02T09:31:52.449Z</time>
      </trkpt>
      <trkpt lat="43.52623" lon="1.59979">
        <ele>168.575</ele>
        <time>2017-07-02T09:32:00.099Z</time>
      </trkpt>
      <trkpt lat="43.52623" lon="1.59979">
        <ele>168.7</ele>
        <time>2017-07-02T09:32:06.068Z</time>
      </trkpt>
      <trkpt lat="43.52623" lon="1.59979">
        <ele>168.7</ele>
        <time>2017-07-02T09:32:06.068Z</time>
      </trkpt>
      <trkpt lat="43.52616" lon="1.59969">
        <ele>168.557</ele>
        <time>2017-07-02T09:32:30.428Z</time>
      </trkpt>
      <trkpt lat="43.52609" lon="1.59961">
        <ele>168.51</ele>
        <time>2017-07-02T09:32:53.072Z</time>
      </trkpt>
      <trkpt lat="43.52602" lon="1.59952">
        <ele>168.572</ele>
        <time>2017-07-02T09:33:04.369Z</time>
      </trkpt>
      <trkpt lat="43.52595" lon="1.59942">
        <ele>168.847</ele>
        <time>2017-07-02T09:33:16.588Z</time>
      </trkpt>
      <trkpt lat="43.52588" lon="1.59932">
        <ele>169.379</ele>
        <time>2017-07-02T09:33:28.284Z</time>
      </trkpt>
      <trkpt lat="43.52581" lon="1.59922">
        <ele>170.146</ele>
        <time>2017-07-02T09:33:39.861Z</time>
      </trkpt>
      <trkpt lat="43.52573" lon="1.59915">
        <ele>171.188</ele>
        <time>2017-07-02T09:33:51.259Z</time>
      </trkpt>
      <trkpt lat="43.52566" lon="1.59906">
        <ele>172.454</ele>
        <time>2017-07-02T09:34:02.563Z</time>
      </trkpt>
      <trkpt lat="43.52563" lon="1.59894">
        <ele>173.753</ele>
        <time>2017-07-02T09:34:14.236Z</time>
      </trkpt>
      <trkpt lat="43.52557" lon="1.59885">
        <ele>175.174</ele>
        <time>2017-07-02T09:34:25.935Z</time>
      </trkpt>
      <trkpt lat="43.5255" lon="1.59872">
        <ele>176.989</ele>
        <time>2017-07-02T09:34:41.811Z</time>
      </trkpt>
      <trkpt lat="43.52544" lon="1.59863">
        <ele>179.251</ele>
        <time>2017-07-02T09:34:56.710Z</time>
      </trkpt>
      <trkpt lat="43.52537" lon="1.59853">
        <ele>181.827</ele>
        <time>2017-07-02T09:35:13.702Z</time>
      </trkpt>
      <trkpt lat="43.52531" lon="1.59843">
        <ele>184.475</ele>
        <time>2017-07-02T09:35:26.730Z</time>
      </trkpt>
      <trkpt lat="43.52523" lon="1.59837">
        <ele>186.82</ele>
        <time>2017-07-02T09:35:35.690Z</time>
      </trkpt>
      <trkpt lat="43.52516" lon="1.59827">
        <ele>188.813</ele>
        <time>2017-07-02T09:35:45.170Z</time>
      </trkpt>
      <trkpt lat="43.5251" lon="1.59817">
        <ele>190.542</ele>
        <time>2017-07-02T09:35:54.777Z</time>
      </trkpt>
      <trkpt lat="43.52504" lon="1.59807">
        <ele>191.825</ele>
        <time>2017-07-02T09:36:04.947Z</time>
      </trkpt>
      <trkpt lat="43.52497" lon="1.59799">
        <ele>192.59</ele>
        <time>2017-07-02T09:36:16.499Z</time>
      </trkpt>
      <trkpt lat="43.52489" lon="1.5979">
        <ele>193.177</ele>
        <time>2017-07-02T09:36:29.609Z</time>
      </trkpt>
      <trkpt lat="43.52485" lon="1.59779">
        <ele>193.836</ele>
        <time>2017-07-02T09:36:42.712Z</time>
      </trkpt>
      <trkpt lat="43.52476" lon="1.59776">
        <ele>194.556</ele>
        <time>2017-07-02T09:36:55.715Z</time>
      </trkpt>
      <trkpt lat="43.52467" lon="1.5978">
        <ele>195.186</ele>
        <time>2017-07-02T09:37:07.564Z</time>
      </trkpt>
      <trkpt lat="43.52457" lon="1.59784">
        <ele>195.632</ele>
        <time>2017-07-02T09:37:19.111Z</time>
      </trkpt>
      <trkpt lat="43.5245" lon="1.59791">
        <ele>195.933</ele>
        <time>2017-07-02T09:37:28.852Z</time>
      </trkpt>
      <trkpt lat="43.52441" lon="1.59794">
        <ele>196.181</ele>
        <time>2017-07-02T09:37:38.059Z</time>
      </trkpt>
      <trkpt lat="43.52436" lon="1.59804">
        <ele>196.388</ele>
        <time>2017-07-02T09:37:47.100Z</time>
      </trkpt>
      <trkpt lat="43.52436" lon="1.59804">
        <ele>196.536</ele>
        <time>2017-07-02T09:38:00.082Z</time>
      </trkpt>
      <trkpt lat="43.52436" lon="1.59804">
        <ele>196.536</ele>
        <time>2017-07-02T09:38:00.082Z</time>
      </trkpt>
      <trkpt lat="43.52425" lon="1.5981">
        <ele>196.478</ele>
        <time>2017-07-02T09:38:22.918Z</time>
      </trkpt>
      <trkpt lat="43.52415" lon="1.59808">
        <ele>196.481</ele>
        <time>2017-07-02T09:38:33.436Z</time>
      </trkpt>
      <trkpt lat="43.52409" lon="1.59798">
        <ele>196.822</ele>
        <time>2017-07-02T09:38:42.731Z</time>
      </trkpt>
      <trkpt lat="43.52405" lon="1.59786">
        <ele>197.37</ele>
        <time>2017-07-02T09:38:51.869Z</time>
      </trkpt>
      <trkpt lat="43.52398" lon="1.59776">
        <ele>197.779</ele>
        <time>2017-07-02T09:39:01.329Z</time>
      </trkpt>
      <trkpt lat="43.52391" lon="1.59766">
        <ele>198.005</ele>
        <time>2017-07-02T09:39:11.227Z</time>
      </trkpt>
      <trkpt lat="43.52385" lon="1.59758">
        <ele>198.2</ele>
        <time>2017-07-02T09:39:20.056Z</time>
      </trkpt>
      <trkpt lat="43.52379" lon="1.59747">
        <ele>198.363</ele>
        <time>2017-07-02T09:39:29.465Z</time>
      </trkpt>
      <trkpt lat="43.52371" lon="1.59737">
        <ele>198.434</ele>
        <time>2017-07-02T09:39:39.499Z</time>
      </trkpt>
      <trkpt lat="43.52373" lon="1.59724">
        <ele>198.437</ele>
        <time>2017-07-02T09:39:48.505Z</time>
      </trkpt>
      <trkpt lat="43.52381" lon="1.59718">
        <ele>198.384</ele>
        <time>2017-07-02T09:39:57.174Z</time>
      </trkpt>
      <trkpt lat="43.52388" lon="1.5971">
        <ele>198.276</ele>
        <time>2017-07-02T09:40:06.354Z</time>
      </trkpt>
      <trkpt lat="43.52395" lon="1.59701">
        <ele>198.135</ele>
        <time>2017-07-02T09:40:14.962Z</time>
      </trkpt>
      <trkpt lat="43.52402" lon="1.59693">
        <ele>197.933</ele>
        <time>2017-07-02T09:40:23.367Z</time>
      </trkpt>
      <trkpt lat="43.5241" lon="1.59685">
        <ele>197.644</ele>
        <time>2017-07-02T09:40:32.609Z</time>
      </trkpt>
      <trkpt lat="43.52417" lon="1.59676">
        <ele>197.356</ele>
        <time>2017-07-02T09:40:41.494Z</time>
      </trkpt>
      <trkpt lat="43.52426" lon="1.59669">
        <ele>197.183</ele>
        <time>2017-07-02T09:40:50.813Z</time>
      </trkpt>
      <trkpt lat="43.52433" lon="1.59661">
        <ele>197.144</ele>
        <time>2017-07-02T09:40:59.258Z</time>
      </trkpt>
      <trkpt lat="43.52426" lon="1.59653">
        <ele>197.189</ele>
        <time>2017-07-02T09:41:07.845Z</time>
      </trkpt>
      <trkpt lat="43.5242" lon="1.59643">
        <ele>197.132</ele>
        <time>2017-07-02T09:41:16.577Z</time>
      </trkpt>
      <trkpt lat="43.52415" lon="1.5963">
        <ele>196.866</ele>
        <time>2017-07-02T09:41:26.857Z</time>
      </trkpt>
      <trkpt lat="43.52409" lon="1.5962">
        <ele>196.581</ele>
        <time>2017-07-02T09:41:36.575Z</time>
      </trkpt>
      <trkpt lat="43.52402" lon="1.59611">
        <ele>196.517</ele>
        <time>2017-07-02T09:41:46.586Z</time>
      </trkpt>
      <trkpt lat="43.52395" lon="1.596">
        <ele>196.709</ele>
        <time>2017-07-02T09:41:57.845Z</time>
      </trkpt>
      <trkpt lat="43.52388" lon="1.59592">
        <ele>197.208</ele>
        <time>2017-07-02T09:42:07.471Z</time>
      </trkpt>
      <trkpt lat="43.52382" lon="1.59582">
        <ele>197.98</ele>
        <time>2017-07-02T09:42:16.469Z</time>
      </trkpt>
      <trkpt lat="43.52376" lon="1.59572">
        <ele>198.694</ele>
        <time>2017-07-02T09:42:25.147Z</time>
      </trkpt>
      <trkpt lat="43.52368" lon="1.59563">
        <ele>199.052</ele>
        <time>2017-07-02T09:42:34.614Z</time>
      </trkpt>
      <trkpt lat="43.52365" lon="1.59551">
        <ele>199.031</ele>
        <time>2017-07-02T09:42:43.074Z</time>
      </trkpt>
      <trkpt lat="43.52371" lon="1.59541">
        <ele>198.625</ele>
        <time>2017-07-02T09:42:52.007Z</time>
      </trkpt>
      <trkpt lat="43.52379" lon="1.59535">
        <ele>197.914</ele>
        <time>2017-07-02T09:43:00.888Z</time>
      </trkpt>
      <trkpt lat="43.52384" lon="1.59524">
        <ele>197.081</ele>
        <time>2017-07-02T09:43:09.882Z</time>
      </trkpt>
      <trkpt lat="43.52392" lon="1.59518">
        <ele>196.206</ele>
        <time>2017-07-02T09:43:18.843Z</time>
      </trkpt>
      <trkpt lat="43.52402" lon="1.59514">
        <ele>195.165</ele>
        <time>2017-07-02T09:43:28.413Z</time>
      </trkpt>
      <trkpt lat="43.52395" lon="1.59505">
        <ele>193.828</ele>
        <time>2017-07-02T09:43:37.651Z</time>
      </trkpt>
      <trkpt lat="43.52385" lon="1.59504">
        <ele>192.325</ele>
        <time>2017-07-02T09:43:47.301Z</time>
      </trkpt>
      <trkpt lat="43.52376" lon="1.595">
        <ele>191.065</ele>
        <time>2017-07-02T09:43:56.696Z</time>
      </trkpt>
      <trkpt lat="43.52367" lon="1.59501">
        <ele>190.363</ele>
        <time>2017-07-02T09:44:05.929Z</time>
      </trkpt>
      <trkpt lat="43.52357" lon="1.59506">
        <ele>190.246</ele>
        <time>2017-07-02T09:44:16.050Z</time>
      </trkpt>
      <trkpt lat="43.52349" lon="1.59502">
        <ele>190.52</ele>
        <time>2017-07-02T09:44:25.296Z</time>
      </trkpt>
      <trkpt lat="43.52339" lon="1.59501">
        <ele>190.932</ele>
        <time>2017-07-02T09:44:35.061Z</time>
      </trkpt>
      <trkpt lat="43.52335" lon="1.59489">
        <ele>191.32</ele>
        <time>2017-07-02T09:44:44.825Z</time>
      </trkpt>
      <trkpt lat="43.52334" lon="1.59472">
        <ele>191.628</ele>
        <time>2017-07-02T09:44:57.276Z</time>
      </trkpt>
      <trkpt lat="43.52335" lon="1.59459">
        <ele>192.064</ele>
        <time>2017-07-02T09:45:06.880Z</time>
      </trkpt>
      <trkpt lat="43.52335" lon="1.59446">
        <ele>192.895</ele>
        <time>2017-07-02T09:45:15.860Z</time>
      </trkpt>
      <trkpt lat="43.52336" lon="1.59433">
        <ele>193.992</ele>
        <time>2017-07-02T09:45:26.217Z</time>
      </trkpt>
      <trkpt lat="43.52342" lon="1.59421">
        <ele>195.047</ele>
        <time>2017-07-02T09:45:37.616Z</time>
      </trkpt>
      <trkpt lat="43.52351" lon="1.59416">
        <ele>195.967</ele>
        <time>2017-07-02T09:45:47.197Z</time>
      </trkpt>
      <trkpt lat="43.52362" lon="1.59415">
        <ele>196.876</ele>
        <time>2017-07-02T09:45:59.727Z</time>
      </trkpt>
      <trkpt lat="43.52372" lon="1.59417">
        <ele>198.139</ele>
        <time>2017-07-02T09:46:10.023Z</time>
      </trkpt>
      <trkpt lat="43.52382" lon="1.59417">
        <ele>199.767</ele>
        <time>2017-07-02T09:46:20.431Z</time>
      </trkpt>
      <trkpt lat="43.52391" lon="1.59413">
        <ele>201.33</ele>
        <time>2017-07-02T09:46:29.687Z</time>
      </trkpt>
      <trkpt lat="43.524" lon="1.59408">
        <ele>202.474</ele>
        <time>2017-07-02T09:46:39.788Z</time>
      </trkpt>
      <trkpt lat="43.52403" lon="1.59397">
        <ele>203.066</ele>
        <time>2017-07-02T09:46:50.514Z</time>
      </trkpt>
      <trkpt lat="43.52402" lon="1.59384">
        <ele>203.171</ele>
        <time>2017-07-02T09:47:01.027Z</time>
      </trkpt>
      <trkpt lat="43.52396" lon="1.59373">
        <ele>203.241</ele>
        <time>2017-07-02T09:47:11.731Z</time>
      </trkpt>
      <trkpt lat="43.52392" lon="1.59362">
        <ele>203.625</ele>
        <time>2017-07-02T09:47:22.407Z</time>
      </trkpt>
      <trkpt lat="43.52388" lon="1.5935">
        <ele>204.265</ele>
        <time>2017-07-02T09:47:34.070Z</time>
      </trkpt>
      <trkpt lat="43.52389" lon="1.59338">
        <ele>204.977</ele>
        <time>2017-07-02T09:47:45.417Z</time>
      </trkpt>
      <trkpt lat="43.52398" lon="1.59333">
        <ele>205.658</ele>
        <time>2017-07-02T09:47:56.487Z</time>
      </trkpt>
      <trkpt lat="43.52404" lon="1.59324">
        <ele>206.187</ele>
        <time>2017-07-02T09:48:07.343Z</time>
      </trkpt>
      <trkpt lat="43.52407" lon="1.59312">
        <ele>206.5</ele>
        <time>2017-07-02T09:48:17.786Z</time>
      </trkpt>
      <trkpt lat="43.52405" lon="1.59299">
        <ele>206.667</ele>
        <time>2017-07-02T09:48:29.087Z</time>
      </trkpt>
      <trkpt lat="43.52403" lon="1.59286">
        <ele>206.999</ele>
        <time>2017-07-02T09:48:40.520Z</time>
      </trkpt>
      <trkpt lat="43.524" lon="1.59273">
        <ele>207.81</ele>
        <time>2017-07-02T09:48:52.657Z</time>
      </trkpt>
      <trkpt lat="43.52397" lon="1.59261">
        <ele>209.002</ele>
        <time>2017-07-02T09:49:06.013Z</time>
      </trkpt>
      <trkpt lat="43.52397" lon="1.59248">
        <ele>210.267</ele>
        <time>2017-07-02T09:49:18.464Z</time>
      </trkpt>
      <trkpt lat="43.52394" lon="1.59235">
        <ele>211.58</ele>
        <time>2017-07-02T09:49:31.997Z</time>
      </trkpt>
      <trkpt lat="43.52392" lon="1.59222">
        <ele>212.986</ele>
        <time>2017-07-02T09:49:44.218Z</time>
      </trkpt>
      <trkpt lat="43.52388" lon="1.59211">
        <ele>214.337</ele>
        <time>2017-07-02T09:49:56.475Z</time>
      </trkpt>
      <trkpt lat="43.52384" lon="1.59199">
        <ele>215.629</ele>
        <time>2017-07-02T09:50:09.208Z</time>
      </trkpt>
      <trkpt lat="43.5238" lon="1.59182">
        <ele>217.083</ele>
        <time>2017-07-02T09:50:27.082Z</time>
      </trkpt>
      <trkpt lat="43.52377" lon="1.59169">
        <ele>219.051</ele>
        <time>2017-07-02T09:50:40.536Z</time>
      </trkpt>
      <trkpt lat="43.52371" lon="1.59158">
        <ele>221.456</ele>
        <time>2017-07-02T09:51:07.069Z</time>
      </trkpt>
      <trkpt lat="43.52372" lon="1.59146">
        <ele>223.615</ele>
        <time>2017-07-02T09:51:32.000Z</time>
      </trkpt>
      <trkpt lat="43.52377" lon="1.59134">
        <ele>225.017</ele>
        <time>2017-07-02T09:51:40.000Z</time>
      </trkpt>
      <trkpt lat="43.52377" lon="1.59134">
        <ele>225.652</ele>
        <time>2017-07-02T09:51:44.000Z</time>
      </trkpt>
      <trkpt lat="43.52377" lon="1.59134">
        <ele>225.652</ele>
        <time>2017-07-02T09:51:44.000Z</time>
      </trkpt>
      <trkpt lat="43.52384" lon="1.59121">
        <ele>225.543</ele>
        <time>2017-07-02T09:51:57.838Z</time>
      </trkpt>
      <trkpt lat="43.5239" lon="1.59112">
        <ele>225.526</ele>
        <time>2017-07-02T09:52:04.559Z</time>
      </trkpt>
      <trkpt lat="43.52396" lon="1.59101">
        <ele>225.857</ele>
        <time>2017-07-02T09:52:11.615Z</time>
      </trkpt>
      <trkpt lat="43.52403" lon="1.59091">
        <ele>226.441</ele>
        <time>2017-07-02T09:52:19.141Z</time>
      </trkpt>
      <trkpt lat="43.52409" lon="1.5908">
        <ele>227.094</ele>
        <time>2017-07-02T09:52:26.532Z</time>
      </trkpt>
      <trkpt lat="43.52415" lon="1.5907">
        <ele>227.8</ele>
        <time>2017-07-02T09:52:33.350Z</time>
      </trkpt>
      <trkpt lat="43.52421" lon="1.5906">
        <ele>228.576</ele>
        <time>2017-07-02T09:52:39.989Z</time>
      </trkpt>
      <trkpt lat="43.52428" lon="1.59051">
        <ele>229.439</ele>
        <time>2017-07-02T09:52:47.138Z</time>
      </trkpt>
      <trkpt lat="43.52434" lon="1.59041">
        <ele>230.329</ele>
        <time>2017-07-02T09:52:53.902Z</time>
      </trkpt>
      <trkpt lat="43.52438" lon="1.59029">
        <ele>231.151</ele>
        <time>2017-07-02T09:53:00.987Z</time>
      </trkpt>
      <trkpt lat="43.52443" lon="1.59018">
        <ele>232.008</ele>
        <time>2017-07-02T09:53:07.999Z</time>
      </trkpt>
      <trkpt lat="43.52443" lon="1.59018">
        <ele>232.873</ele>
        <time>2017-07-02T09:53:16.999Z</time>
      </trkpt>
      <trkpt lat="43.52443" lon="1.59018">
        <ele>232.873</ele>
        <time>2017-07-02T09:53:16.999Z</time>
      </trkpt>
      <trkpt lat="43.52441" lon="1.59001">
        <ele>233.192</ele>
        <time>2017-07-02T09:53:30.003Z</time>
      </trkpt>
      <trkpt lat="43.52433" lon="1.58994">
        <ele>233.3</ele>
        <time>2017-07-02T09:53:36.708Z</time>
      </trkpt>
      <trkpt lat="43.52425" lon="1.58985">
        <ele>234.389</ele>
        <time>2017-07-02T09:53:43.884Z</time>
      </trkpt>
      <trkpt lat="43.52418" lon="1.58977">
        <ele>236.009</ele>
        <time>2017-07-02T09:53:50.743Z</time>
      </trkpt>
      <trkpt lat="43.52419" lon="1.5899">
        <ele>237.403</ele>
        <time>2017-07-02T09:53:57.999Z</time>
      </trkpt>
      <trkpt lat="43.52421" lon="1.59003">
        <ele>238.334</ele>
        <time>2017-07-02T09:54:08.999Z</time>
      </trkpt>
    </trkseg>
  </trk>
</gpx>